<?xml version="1.0" encoding="UTF-8" standalone="no" ?>
<gpx xmlns="http://www.topografix.com/GPX/1/1" xmlns:xsi="http://www.w3.org/2001/XMLSchema-instance" xsi:schemaLocation="http://www.topografix.com/GPX/1/1 http://www.topografix.com/GPX/1/1/gpx.xsd" version="1.1" creator="VisuGPX - https://www.visugpx.com">
  <metadata>
    <name>Trou Du Rat - Sentier de la forêt</name>
    <desc><![CDATA[Petite randonnée / balade au pied du Petit Luberon (Cheval Blanc)]]></desc>
  </metadata>
  <trk>
    <name><![CDATA[Trou Du Rat Sentier]]></name>
    <desc><![CDATA[]]></desc>
    <trkseg>
      <trkpt lat="43.78352" lon="5.13249">
        <ele>392</ele>
        <time>2016-02-21T14:13:54.396Z</time>
      </trkpt>
      <trkpt lat="43.7836" lon="5.13246">
        <ele>391</ele>
        <time>2016-02-21T14:14:05.926Z</time>
      </trkpt>
      <trkpt lat="43.78362" lon="5.13246">
        <ele>391</ele>
        <time>2016-02-21T14:14:06.790Z</time>
      </trkpt>
      <trkpt lat="43.7837" lon="5.13246">
        <ele>395</ele>
        <time>2016-02-21T14:14:14.897Z</time>
      </trkpt>
      <trkpt lat="43.78371" lon="5.13245">
        <ele>396</ele>
        <time>2016-02-21T14:14:15.799Z</time>
      </trkpt>
      <trkpt lat="43.78378" lon="5.13246">
        <ele>398</ele>
        <time>2016-02-21T14:14:21.966Z</time>
      </trkpt>
      <trkpt lat="43.78381" lon="5.13243">
        <ele>397</ele>
        <time>2016-02-21T14:14:22.803Z</time>
      </trkpt>
      <trkpt lat="43.78389" lon="5.13243">
        <ele>399</ele>
        <time>2016-02-21T14:14:33.856Z</time>
      </trkpt>
      <trkpt lat="43.7839" lon="5.13242">
        <ele>400</ele>
        <time>2016-02-21T14:14:34.802Z</time>
      </trkpt>
      <trkpt lat="43.78398" lon="5.13238">
        <ele>400</ele>
        <time>2016-02-21T14:14:40.863Z</time>
      </trkpt>
      <trkpt lat="43.784" lon="5.13237">
        <ele>401</ele>
        <time>2016-02-21T14:14:41.799Z</time>
      </trkpt>
      <trkpt lat="43.78407" lon="5.13234">
        <ele>400</ele>
        <time>2016-02-21T14:14:47.960Z</time>
      </trkpt>
      <trkpt lat="43.78409" lon="5.13234">
        <ele>400</ele>
        <time>2016-02-21T14:14:48.802Z</time>
      </trkpt>
      <trkpt lat="43.78418" lon="5.13232">
        <ele>398</ele>
        <time>2016-02-21T14:14:54.862Z</time>
      </trkpt>
      <trkpt lat="43.78418" lon="5.13232">
        <ele>398</ele>
        <time>2016-02-21T14:14:55.802Z</time>
      </trkpt>
      <trkpt lat="43.78426" lon="5.1323">
        <ele>397</ele>
        <time>2016-02-21T14:15:05.981Z</time>
      </trkpt>
      <trkpt lat="43.78428" lon="5.13231">
        <ele>396</ele>
        <time>2016-02-21T14:15:06.861Z</time>
      </trkpt>
      <trkpt lat="43.78436" lon="5.13233">
        <ele>399</ele>
        <time>2016-02-21T14:15:15.896Z</time>
      </trkpt>
      <trkpt lat="43.78438" lon="5.13234">
        <ele>398</ele>
        <time>2016-02-21T14:15:16.808Z</time>
      </trkpt>
      <trkpt lat="43.78445" lon="5.13239">
        <ele>396</ele>
        <time>2016-02-21T14:15:24.896Z</time>
      </trkpt>
      <trkpt lat="43.78446" lon="5.1324">
        <ele>394</ele>
        <time>2016-02-21T14:15:25.801Z</time>
      </trkpt>
      <trkpt lat="43.78454" lon="5.13235">
        <ele>398</ele>
        <time>2016-02-21T14:15:35.858Z</time>
      </trkpt>
      <trkpt lat="43.78455" lon="5.13234">
        <ele>397</ele>
        <time>2016-02-21T14:15:36.803Z</time>
      </trkpt>
      <trkpt lat="43.78458" lon="5.13224">
        <ele>399</ele>
        <time>2016-02-21T14:15:42.887Z</time>
      </trkpt>
      <trkpt lat="43.78458" lon="5.13222">
        <ele>400</ele>
        <time>2016-02-21T14:15:43.804Z</time>
      </trkpt>
      <trkpt lat="43.7846" lon="5.1322">
        <ele>400</ele>
        <time>2016-02-21T14:15:45.859Z</time>
      </trkpt>
      <trkpt lat="43.7846" lon="5.13221">
        <ele>400</ele>
        <time>2016-02-21T14:15:46.803Z</time>
      </trkpt>
      <trkpt lat="43.7846" lon="5.13221">
        <ele>400</ele>
        <time>2016-02-21T14:15:46.841Z</time>
      </trkpt>
      <trkpt lat="43.7846" lon="5.13221">
        <ele>400</ele>
        <time>2016-02-21T14:15:47.803Z</time>
      </trkpt>
      <trkpt lat="43.78459" lon="5.13219">
        <ele>398</ele>
        <time>2016-02-21T14:15:55.858Z</time>
      </trkpt>
      <trkpt lat="43.78459" lon="5.13219">
        <ele>397</ele>
        <time>2016-02-21T14:15:56.804Z</time>
      </trkpt>
      <trkpt lat="43.78459" lon="5.13218">
        <ele>398</ele>
        <time>2016-02-21T14:16:02.836Z</time>
      </trkpt>
      <trkpt lat="43.7846" lon="5.13219">
        <ele>398</ele>
        <time>2016-02-21T14:16:03.802Z</time>
      </trkpt>
      <trkpt lat="43.7846" lon="5.13219">
        <ele>398</ele>
        <time>2016-02-21T14:16:03.840Z</time>
      </trkpt>
      <trkpt lat="43.78459" lon="5.13219">
        <ele>398</ele>
        <time>2016-02-21T14:16:03.895Z</time>
      </trkpt>
      <trkpt lat="43.78461" lon="5.1322">
        <ele>398</ele>
        <time>2016-02-21T14:16:10.860Z</time>
      </trkpt>
      <trkpt lat="43.7846" lon="5.1322">
        <ele>398</ele>
        <time>2016-02-21T14:16:11.800Z</time>
      </trkpt>
      <trkpt lat="43.78469" lon="5.13218">
        <ele>398</ele>
        <time>2016-02-21T14:16:43.861Z</time>
      </trkpt>
      <trkpt lat="43.78469" lon="5.13218">
        <ele>400</ele>
        <time>2016-02-21T14:16:44.802Z</time>
      </trkpt>
      <trkpt lat="43.78476" lon="5.13215">
        <ele>397</ele>
        <time>2016-02-21T14:16:49.857Z</time>
      </trkpt>
      <trkpt lat="43.78478" lon="5.13214">
        <ele>398</ele>
        <time>2016-02-21T14:16:50.809Z</time>
      </trkpt>
      <trkpt lat="43.78487" lon="5.13211">
        <ele>398</ele>
        <time>2016-02-21T14:16:58.836Z</time>
      </trkpt>
      <trkpt lat="43.78488" lon="5.1321">
        <ele>399</ele>
        <time>2016-02-21T14:16:59.804Z</time>
      </trkpt>
      <trkpt lat="43.78495" lon="5.13205">
        <ele>400</ele>
        <time>2016-02-21T14:17:07.862Z</time>
      </trkpt>
      <trkpt lat="43.78497" lon="5.13203">
        <ele>401</ele>
        <time>2016-02-21T14:17:08.799Z</time>
      </trkpt>
      <trkpt lat="43.78503" lon="5.13199">
        <ele>399</ele>
        <time>2016-02-21T14:17:11.989Z</time>
      </trkpt>
      <trkpt lat="43.78505" lon="5.13198">
        <ele>399</ele>
        <time>2016-02-21T14:17:12.802Z</time>
      </trkpt>
      <trkpt lat="43.78512" lon="5.13192">
        <ele>397</ele>
        <time>2016-02-21T14:17:16.884Z</time>
      </trkpt>
      <trkpt lat="43.78514" lon="5.13191">
        <ele>397</ele>
        <time>2016-02-21T14:17:17.804Z</time>
      </trkpt>
      <trkpt lat="43.78521" lon="5.13186">
        <ele>403</ele>
        <time>2016-02-21T14:17:26.900Z</time>
      </trkpt>
      <trkpt lat="43.78522" lon="5.13184">
        <ele>404</ele>
        <time>2016-02-21T14:17:27.803Z</time>
      </trkpt>
      <trkpt lat="43.78529" lon="5.13178">
        <ele>408</ele>
        <time>2016-02-21T14:17:33.888Z</time>
      </trkpt>
      <trkpt lat="43.78531" lon="5.13177">
        <ele>409</ele>
        <time>2016-02-21T14:17:34.798Z</time>
      </trkpt>
      <trkpt lat="43.78537" lon="5.13171">
        <ele>408</ele>
        <time>2016-02-21T14:17:39.898Z</time>
      </trkpt>
      <trkpt lat="43.78539" lon="5.13169">
        <ele>407</ele>
        <time>2016-02-21T14:17:40.805Z</time>
      </trkpt>
      <trkpt lat="43.78544" lon="5.13158">
        <ele>408</ele>
        <time>2016-02-21T14:17:48.835Z</time>
      </trkpt>
      <trkpt lat="43.78546" lon="5.13155">
        <ele>407</ele>
        <time>2016-02-21T14:17:49.804Z</time>
      </trkpt>
      <trkpt lat="43.78552" lon="5.13147">
        <ele>408</ele>
        <time>2016-02-21T14:17:55.925Z</time>
      </trkpt>
      <trkpt lat="43.78553" lon="5.13146">
        <ele>407</ele>
        <time>2016-02-21T14:17:56.806Z</time>
      </trkpt>
      <trkpt lat="43.78558" lon="5.1314">
        <ele>406</ele>
        <time>2016-02-21T14:18:00.867Z</time>
      </trkpt>
      <trkpt lat="43.7856" lon="5.13138">
        <ele>405</ele>
        <time>2016-02-21T14:18:01.805Z</time>
      </trkpt>
      <trkpt lat="43.78565" lon="5.13133">
        <ele>404</ele>
        <time>2016-02-21T14:18:09.448Z</time>
      </trkpt>
      <trkpt lat="43.78559" lon="5.13136">
        <ele>441</ele>
        <time>2016-02-21T14:20:38.761Z</time>
      </trkpt>
      <trkpt lat="43.78564" lon="5.13131">
        <ele>408</ele>
        <time>2016-02-21T14:20:42.156Z</time>
      </trkpt>
      <trkpt lat="43.78571" lon="5.13132">
        <ele>408</ele>
        <time>2016-02-21T14:20:43.038Z</time>
      </trkpt>
      <trkpt lat="43.78567" lon="5.13136">
        <ele>413</ele>
        <time>2016-02-21T14:20:47.119Z</time>
      </trkpt>
      <trkpt lat="43.78564" lon="5.13145">
        <ele>413</ele>
        <time>2016-02-21T14:20:48.075Z</time>
      </trkpt>
      <trkpt lat="43.78569" lon="5.13138">
        <ele>403</ele>
        <time>2016-02-21T14:20:49.112Z</time>
      </trkpt>
      <trkpt lat="43.7857" lon="5.13135">
        <ele>413</ele>
        <time>2016-02-21T14:20:50.048Z</time>
      </trkpt>
      <trkpt lat="43.7857" lon="5.13136">
        <ele>413</ele>
        <time>2016-02-21T14:20:50.143Z</time>
      </trkpt>
      <trkpt lat="43.78562" lon="5.13146">
        <ele>435</ele>
        <time>2016-02-21T14:20:51.045Z</time>
      </trkpt>
      <trkpt lat="43.78567" lon="5.13137">
        <ele>417</ele>
        <time>2016-02-21T14:20:57.131Z</time>
      </trkpt>
      <trkpt lat="43.78571" lon="5.13133">
        <ele>416</ele>
        <time>2016-02-21T14:20:58.049Z</time>
      </trkpt>
      <trkpt lat="43.78577" lon="5.13132">
        <ele>401</ele>
        <time>2016-02-21T14:21:00.238Z</time>
      </trkpt>
      <trkpt lat="43.78587" lon="5.13126">
        <ele>390</ele>
        <time>2016-02-21T14:21:01.054Z</time>
      </trkpt>
      <trkpt lat="43.78587" lon="5.13126">
        <ele>390</ele>
        <time>2016-02-21T14:21:01.128Z</time>
      </trkpt>
      <trkpt lat="43.78579" lon="5.13135">
        <ele>406</ele>
        <time>2016-02-21T14:21:01.797Z</time>
      </trkpt>
      <trkpt lat="43.78587" lon="5.13131">
        <ele>410</ele>
        <time>2016-02-21T14:21:29.834Z</time>
      </trkpt>
      <trkpt lat="43.78587" lon="5.13131">
        <ele>410</ele>
        <time>2016-02-21T14:21:29.861Z</time>
      </trkpt>
      <trkpt lat="43.78587" lon="5.13134">
        <ele>411</ele>
        <time>2016-02-21T14:22:21.834Z</time>
      </trkpt>
      <trkpt lat="43.78588" lon="5.13135">
        <ele>411</ele>
        <time>2016-02-21T14:22:22.803Z</time>
      </trkpt>
      <trkpt lat="43.78596" lon="5.13134">
        <ele>409</ele>
        <time>2016-02-21T14:22:29.855Z</time>
      </trkpt>
      <trkpt lat="43.78597" lon="5.13132">
        <ele>408</ele>
        <time>2016-02-21T14:22:30.798Z</time>
      </trkpt>
      <trkpt lat="43.78604" lon="5.1313">
        <ele>408</ele>
        <time>2016-02-21T14:22:35.854Z</time>
      </trkpt>
      <trkpt lat="43.78606" lon="5.1313">
        <ele>407</ele>
        <time>2016-02-21T14:22:36.802Z</time>
      </trkpt>
      <trkpt lat="43.78614" lon="5.13131">
        <ele>409</ele>
        <time>2016-02-21T14:22:59.882Z</time>
      </trkpt>
      <trkpt lat="43.78615" lon="5.13131">
        <ele>409</ele>
        <time>2016-02-21T14:23:00.802Z</time>
      </trkpt>
      <trkpt lat="43.78623" lon="5.13127">
        <ele>405</ele>
        <time>2016-02-21T14:23:19.857Z</time>
      </trkpt>
      <trkpt lat="43.78624" lon="5.13126">
        <ele>407</ele>
        <time>2016-02-21T14:23:20.805Z</time>
      </trkpt>
      <trkpt lat="43.78632" lon="5.13124">
        <ele>403</ele>
        <time>2016-02-21T14:23:25.909Z</time>
      </trkpt>
      <trkpt lat="43.78633" lon="5.13125">
        <ele>402</ele>
        <time>2016-02-21T14:23:26.802Z</time>
      </trkpt>
      <trkpt lat="43.78641" lon="5.13123">
        <ele>402</ele>
        <time>2016-02-21T14:23:33.859Z</time>
      </trkpt>
      <trkpt lat="43.78644" lon="5.13121">
        <ele>400</ele>
        <time>2016-02-21T14:23:34.800Z</time>
      </trkpt>
      <trkpt lat="43.78651" lon="5.13117">
        <ele>401</ele>
        <time>2016-02-21T14:23:39.965Z</time>
      </trkpt>
      <trkpt lat="43.78653" lon="5.13116">
        <ele>401</ele>
        <time>2016-02-21T14:23:40.802Z</time>
      </trkpt>
      <trkpt lat="43.7866" lon="5.13119">
        <ele>407</ele>
        <time>2016-02-21T14:23:45.854Z</time>
      </trkpt>
      <trkpt lat="43.78661" lon="5.13119">
        <ele>406</ele>
        <time>2016-02-21T14:23:46.793Z</time>
      </trkpt>
      <trkpt lat="43.78669" lon="5.13117">
        <ele>408</ele>
        <time>2016-02-21T14:23:51.914Z</time>
      </trkpt>
      <trkpt lat="43.7867" lon="5.13116">
        <ele>409</ele>
        <time>2016-02-21T14:23:52.800Z</time>
      </trkpt>
      <trkpt lat="43.78678" lon="5.13118">
        <ele>405</ele>
        <time>2016-02-21T14:23:58.858Z</time>
      </trkpt>
      <trkpt lat="43.78679" lon="5.13118">
        <ele>406</ele>
        <time>2016-02-21T14:23:59.799Z</time>
      </trkpt>
      <trkpt lat="43.78686" lon="5.13114">
        <ele>405</ele>
        <time>2016-02-21T14:24:06.855Z</time>
      </trkpt>
      <trkpt lat="43.78688" lon="5.13116">
        <ele>407</ele>
        <time>2016-02-21T14:24:07.798Z</time>
      </trkpt>
      <trkpt lat="43.78696" lon="5.13121">
        <ele>410</ele>
        <time>2016-02-21T14:24:12.909Z</time>
      </trkpt>
      <trkpt lat="43.78698" lon="5.13121">
        <ele>410</ele>
        <time>2016-02-21T14:24:13.801Z</time>
      </trkpt>
      <trkpt lat="43.78705" lon="5.13122">
        <ele>411</ele>
        <time>2016-02-21T14:24:21.892Z</time>
      </trkpt>
      <trkpt lat="43.78707" lon="5.13121">
        <ele>411</ele>
        <time>2016-02-21T14:24:22.802Z</time>
      </trkpt>
      <trkpt lat="43.78715" lon="5.13122">
        <ele>418</ele>
        <time>2016-02-21T14:24:32.881Z</time>
      </trkpt>
      <trkpt lat="43.78716" lon="5.13122">
        <ele>419</ele>
        <time>2016-02-21T14:24:33.799Z</time>
      </trkpt>
      <trkpt lat="43.78722" lon="5.13122">
        <ele>421</ele>
        <time>2016-02-21T14:24:42.855Z</time>
      </trkpt>
      <trkpt lat="43.78724" lon="5.13118">
        <ele>422</ele>
        <time>2016-02-21T14:24:43.798Z</time>
      </trkpt>
      <trkpt lat="43.78732" lon="5.13119">
        <ele>423</ele>
        <time>2016-02-21T14:24:51.855Z</time>
      </trkpt>
      <trkpt lat="43.78735" lon="5.13119">
        <ele>421</ele>
        <time>2016-02-21T14:24:52.802Z</time>
      </trkpt>
      <trkpt lat="43.78743" lon="5.13117">
        <ele>417</ele>
        <time>2016-02-21T14:24:56.973Z</time>
      </trkpt>
      <trkpt lat="43.78746" lon="5.13115">
        <ele>416</ele>
        <time>2016-02-21T14:24:57.803Z</time>
      </trkpt>
      <trkpt lat="43.78753" lon="5.13111">
        <ele>418</ele>
        <time>2016-02-21T14:25:02.854Z</time>
      </trkpt>
      <trkpt lat="43.78755" lon="5.13109">
        <ele>417</ele>
        <time>2016-02-21T14:25:03.797Z</time>
      </trkpt>
      <trkpt lat="43.78757" lon="5.13108">
        <ele>418</ele>
        <time>2016-02-21T14:25:06.884Z</time>
      </trkpt>
      <trkpt lat="43.78757" lon="5.13108">
        <ele>418</ele>
        <time>2016-02-21T14:25:07.799Z</time>
      </trkpt>
      <trkpt lat="43.7876" lon="5.13104">
        <ele>416</ele>
        <time>2016-02-21T14:25:28.857Z</time>
      </trkpt>
      <trkpt lat="43.78761" lon="5.13105">
        <ele>416</ele>
        <time>2016-02-21T14:25:29.802Z</time>
      </trkpt>
      <trkpt lat="43.78769" lon="5.131">
        <ele>416</ele>
        <time>2016-02-21T14:25:39.884Z</time>
      </trkpt>
      <trkpt lat="43.7877" lon="5.13099">
        <ele>416</ele>
        <time>2016-02-21T14:25:40.802Z</time>
      </trkpt>
      <trkpt lat="43.78778" lon="5.13097">
        <ele>412</ele>
        <time>2016-02-21T14:25:47.070Z</time>
      </trkpt>
      <trkpt lat="43.7878" lon="5.13097">
        <ele>412</ele>
        <time>2016-02-21T14:25:47.800Z</time>
      </trkpt>
      <trkpt lat="43.78788" lon="5.13091">
        <ele>413</ele>
        <time>2016-02-21T14:25:57.859Z</time>
      </trkpt>
      <trkpt lat="43.78788" lon="5.13091">
        <ele>414</ele>
        <time>2016-02-21T14:25:58.801Z</time>
      </trkpt>
      <trkpt lat="43.7879" lon="5.13088">
        <ele>414</ele>
        <time>2016-02-21T14:26:04.865Z</time>
      </trkpt>
      <trkpt lat="43.7879" lon="5.13088">
        <ele>414</ele>
        <time>2016-02-21T14:26:05.801Z</time>
      </trkpt>
      <trkpt lat="43.7879" lon="5.13088">
        <ele>414</ele>
        <time>2016-02-21T14:26:21.882Z</time>
      </trkpt>
      <trkpt lat="43.7879" lon="5.1309">
        <ele>414</ele>
        <time>2016-02-21T14:26:22.799Z</time>
      </trkpt>
      <trkpt lat="43.78798" lon="5.13095">
        <ele>414</ele>
        <time>2016-02-21T14:26:33.951Z</time>
      </trkpt>
      <trkpt lat="43.78798" lon="5.13095">
        <ele>414</ele>
        <time>2016-02-21T14:26:34.806Z</time>
      </trkpt>
      <trkpt lat="43.78805" lon="5.13095">
        <ele>417</ele>
        <time>2016-02-21T14:26:44.835Z</time>
      </trkpt>
      <trkpt lat="43.78807" lon="5.13095">
        <ele>417</ele>
        <time>2016-02-21T14:26:45.804Z</time>
      </trkpt>
      <trkpt lat="43.78815" lon="5.13097">
        <ele>419</ele>
        <time>2016-02-21T14:26:54.833Z</time>
      </trkpt>
      <trkpt lat="43.78816" lon="5.13097">
        <ele>418</ele>
        <time>2016-02-21T14:26:55.798Z</time>
      </trkpt>
      <trkpt lat="43.78824" lon="5.131">
        <ele>417</ele>
        <time>2016-02-21T14:27:04.862Z</time>
      </trkpt>
      <trkpt lat="43.78825" lon="5.13101">
        <ele>418</ele>
        <time>2016-02-21T14:27:05.802Z</time>
      </trkpt>
      <trkpt lat="43.78833" lon="5.13104">
        <ele>416</ele>
        <time>2016-02-21T14:27:19.830Z</time>
      </trkpt>
      <trkpt lat="43.78834" lon="5.13106">
        <ele>414</ele>
        <time>2016-02-21T14:27:20.830Z</time>
      </trkpt>
      <trkpt lat="43.78843" lon="5.13107">
        <ele>418</ele>
        <time>2016-02-21T14:27:28.834Z</time>
      </trkpt>
      <trkpt lat="43.78844" lon="5.13106">
        <ele>419</ele>
        <time>2016-02-21T14:27:29.798Z</time>
      </trkpt>
      <trkpt lat="43.78845" lon="5.13106">
        <ele>419</ele>
        <time>2016-02-21T14:27:30.859Z</time>
      </trkpt>
      <trkpt lat="43.78845" lon="5.13105">
        <ele>419</ele>
        <time>2016-02-21T14:27:31.799Z</time>
      </trkpt>
      <trkpt lat="43.78846" lon="5.13105">
        <ele>419</ele>
        <time>2016-02-21T14:27:36.866Z</time>
      </trkpt>
      <trkpt lat="43.78848" lon="5.13106">
        <ele>420</ele>
        <time>2016-02-21T14:27:37.803Z</time>
      </trkpt>
      <trkpt lat="43.78855" lon="5.1311">
        <ele>418</ele>
        <time>2016-02-21T14:27:42.834Z</time>
      </trkpt>
      <trkpt lat="43.78856" lon="5.13109">
        <ele>418</ele>
        <time>2016-02-21T14:27:43.798Z</time>
      </trkpt>
      <trkpt lat="43.78864" lon="5.13112">
        <ele>419</ele>
        <time>2016-02-21T14:27:49.861Z</time>
      </trkpt>
      <trkpt lat="43.78865" lon="5.13113">
        <ele>416</ele>
        <time>2016-02-21T14:27:50.801Z</time>
      </trkpt>
      <trkpt lat="43.78873" lon="5.13116">
        <ele>416</ele>
        <time>2016-02-21T14:27:57.915Z</time>
      </trkpt>
      <trkpt lat="43.78874" lon="5.13117">
        <ele>415</ele>
        <time>2016-02-21T14:27:58.803Z</time>
      </trkpt>
      <trkpt lat="43.78882" lon="5.13118">
        <ele>418</ele>
        <time>2016-02-21T14:28:06.858Z</time>
      </trkpt>
      <trkpt lat="43.78883" lon="5.13118">
        <ele>418</ele>
        <time>2016-02-21T14:28:07.803Z</time>
      </trkpt>
      <trkpt lat="43.7889" lon="5.13124">
        <ele>423</ele>
        <time>2016-02-21T14:28:15.853Z</time>
      </trkpt>
      <trkpt lat="43.78891" lon="5.13125">
        <ele>423</ele>
        <time>2016-02-21T14:28:16.800Z</time>
      </trkpt>
      <trkpt lat="43.78899" lon="5.13128">
        <ele>420</ele>
        <time>2016-02-21T14:28:20.859Z</time>
      </trkpt>
      <trkpt lat="43.789" lon="5.13127">
        <ele>419</ele>
        <time>2016-02-21T14:28:21.798Z</time>
      </trkpt>
      <trkpt lat="43.78909" lon="5.13129">
        <ele>421</ele>
        <time>2016-02-21T14:28:34.901Z</time>
      </trkpt>
      <trkpt lat="43.78909" lon="5.13129">
        <ele>421</ele>
        <time>2016-02-21T14:28:35.803Z</time>
      </trkpt>
      <trkpt lat="43.78918" lon="5.13133">
        <ele>424</ele>
        <time>2016-02-21T14:28:43.874Z</time>
      </trkpt>
      <trkpt lat="43.78918" lon="5.13133">
        <ele>418</ele>
        <time>2016-02-21T14:28:44.809Z</time>
      </trkpt>
      <trkpt lat="43.78926" lon="5.13135">
        <ele>422</ele>
        <time>2016-02-21T14:28:52.837Z</time>
      </trkpt>
      <trkpt lat="43.78927" lon="5.13136">
        <ele>423</ele>
        <time>2016-02-21T14:28:53.803Z</time>
      </trkpt>
      <trkpt lat="43.78936" lon="5.13136">
        <ele>426</ele>
        <time>2016-02-21T14:28:59.878Z</time>
      </trkpt>
      <trkpt lat="43.78936" lon="5.13136">
        <ele>426</ele>
        <time>2016-02-21T14:29:00.798Z</time>
      </trkpt>
      <trkpt lat="43.78945" lon="5.13134">
        <ele>425</ele>
        <time>2016-02-21T14:29:09.855Z</time>
      </trkpt>
      <trkpt lat="43.78946" lon="5.13135">
        <ele>426</ele>
        <time>2016-02-21T14:29:10.798Z</time>
      </trkpt>
      <trkpt lat="43.78954" lon="5.13137">
        <ele>427</ele>
        <time>2016-02-21T14:29:19.892Z</time>
      </trkpt>
      <trkpt lat="43.78955" lon="5.13137">
        <ele>427</ele>
        <time>2016-02-21T14:29:20.850Z</time>
      </trkpt>
      <trkpt lat="43.78963" lon="5.13143">
        <ele>429</ele>
        <time>2016-02-21T14:29:30.995Z</time>
      </trkpt>
      <trkpt lat="43.78964" lon="5.13142">
        <ele>430</ele>
        <time>2016-02-21T14:29:31.801Z</time>
      </trkpt>
      <trkpt lat="43.78971" lon="5.13144">
        <ele>431</ele>
        <time>2016-02-21T14:29:39.864Z</time>
      </trkpt>
      <trkpt lat="43.78975" lon="5.13147">
        <ele>430</ele>
        <time>2016-02-21T14:29:40.802Z</time>
      </trkpt>
      <trkpt lat="43.78982" lon="5.13149">
        <ele>430</ele>
        <time>2016-02-21T14:29:49.880Z</time>
      </trkpt>
      <trkpt lat="43.78984" lon="5.13151">
        <ele>430</ele>
        <time>2016-02-21T14:29:50.801Z</time>
      </trkpt>
      <trkpt lat="43.78993" lon="5.13152">
        <ele>437</ele>
        <time>2016-02-21T14:30:02.920Z</time>
      </trkpt>
      <trkpt lat="43.78995" lon="5.1315">
        <ele>436</ele>
        <time>2016-02-21T14:30:03.805Z</time>
      </trkpt>
      <trkpt lat="43.79" lon="5.13152">
        <ele>437</ele>
        <time>2016-02-21T14:30:10.833Z</time>
      </trkpt>
      <trkpt lat="43.79" lon="5.13152">
        <ele>437</ele>
        <time>2016-02-21T14:30:10.871Z</time>
      </trkpt>
      <trkpt lat="43.79001" lon="5.13152">
        <ele>436</ele>
        <time>2016-02-21T14:30:22.928Z</time>
      </trkpt>
      <trkpt lat="43.79001" lon="5.13152">
        <ele>436</ele>
        <time>2016-02-21T14:30:23.852Z</time>
      </trkpt>
      <trkpt lat="43.79009" lon="5.13152">
        <ele>436</ele>
        <time>2016-02-21T14:30:54.843Z</time>
      </trkpt>
      <trkpt lat="43.7901" lon="5.13151">
        <ele>435</ele>
        <time>2016-02-21T14:30:55.803Z</time>
      </trkpt>
      <trkpt lat="43.79018" lon="5.13146">
        <ele>440</ele>
        <time>2016-02-21T14:31:04.892Z</time>
      </trkpt>
      <trkpt lat="43.79019" lon="5.13148">
        <ele>442</ele>
        <time>2016-02-21T14:31:05.800Z</time>
      </trkpt>
      <trkpt lat="43.79024" lon="5.13155">
        <ele>443</ele>
        <time>2016-02-21T14:31:13.906Z</time>
      </trkpt>
      <trkpt lat="43.79025" lon="5.13156">
        <ele>442</ele>
        <time>2016-02-21T14:31:14.798Z</time>
      </trkpt>
      <trkpt lat="43.79031" lon="5.13162">
        <ele>444</ele>
        <time>2016-02-21T14:31:27.836Z</time>
      </trkpt>
      <trkpt lat="43.79032" lon="5.13164">
        <ele>444</ele>
        <time>2016-02-21T14:31:28.801Z</time>
      </trkpt>
      <trkpt lat="43.79037" lon="5.13168">
        <ele>446</ele>
        <time>2016-02-21T14:31:35.893Z</time>
      </trkpt>
      <trkpt lat="43.79038" lon="5.13169">
        <ele>446</ele>
        <time>2016-02-21T14:31:36.799Z</time>
      </trkpt>
      <trkpt lat="43.7904" lon="5.13171">
        <ele>446</ele>
        <time>2016-02-21T14:32:04.902Z</time>
      </trkpt>
      <trkpt lat="43.79041" lon="5.13171">
        <ele>446</ele>
        <time>2016-02-21T14:32:05.806Z</time>
      </trkpt>
      <trkpt lat="43.79049" lon="5.13175">
        <ele>445</ele>
        <time>2016-02-21T14:32:20.900Z</time>
      </trkpt>
      <trkpt lat="43.79049" lon="5.13176">
        <ele>445</ele>
        <time>2016-02-21T14:32:21.806Z</time>
      </trkpt>
      <trkpt lat="43.79049" lon="5.13176">
        <ele>445</ele>
        <time>2016-02-21T14:32:25.895Z</time>
      </trkpt>
      <trkpt lat="43.7905" lon="5.13177">
        <ele>445</ele>
        <time>2016-02-21T14:32:26.806Z</time>
      </trkpt>
      <trkpt lat="43.79057" lon="5.13182">
        <ele>445</ele>
        <time>2016-02-21T14:32:33.860Z</time>
      </trkpt>
      <trkpt lat="43.79058" lon="5.13183">
        <ele>446</ele>
        <time>2016-02-21T14:32:34.804Z</time>
      </trkpt>
      <trkpt lat="43.79061" lon="5.13186">
        <ele>447</ele>
        <time>2016-02-21T14:32:38.893Z</time>
      </trkpt>
      <trkpt lat="43.79061" lon="5.13186">
        <ele>448</ele>
        <time>2016-02-21T14:32:39.803Z</time>
      </trkpt>
      <trkpt lat="43.79061" lon="5.13186">
        <ele>448</ele>
        <time>2016-02-21T14:32:39.985Z</time>
      </trkpt>
      <trkpt lat="43.79062" lon="5.13186">
        <ele>447</ele>
        <time>2016-02-21T14:32:40.801Z</time>
      </trkpt>
      <trkpt lat="43.79062" lon="5.13186">
        <ele>447</ele>
        <time>2016-02-21T14:32:40.834Z</time>
      </trkpt>
      <trkpt lat="43.79062" lon="5.13185">
        <ele>447</ele>
        <time>2016-02-21T14:32:40.894Z</time>
      </trkpt>
      <trkpt lat="43.79062" lon="5.13185">
        <ele>447</ele>
        <time>2016-02-21T14:32:44.893Z</time>
      </trkpt>
      <trkpt lat="43.79063" lon="5.13187">
        <ele>447</ele>
        <time>2016-02-21T14:32:45.806Z</time>
      </trkpt>
      <trkpt lat="43.7907" lon="5.13193">
        <ele>450</ele>
        <time>2016-02-21T14:32:53.901Z</time>
      </trkpt>
      <trkpt lat="43.79071" lon="5.13194">
        <ele>450</ele>
        <time>2016-02-21T14:32:54.801Z</time>
      </trkpt>
      <trkpt lat="43.79077" lon="5.13202">
        <ele>450</ele>
        <time>2016-02-21T14:33:00.894Z</time>
      </trkpt>
      <trkpt lat="43.79078" lon="5.13203">
        <ele>450</ele>
        <time>2016-02-21T14:33:01.801Z</time>
      </trkpt>
      <trkpt lat="43.79083" lon="5.13211">
        <ele>451</ele>
        <time>2016-02-21T14:33:08.903Z</time>
      </trkpt>
      <trkpt lat="43.79084" lon="5.13212">
        <ele>451</ele>
        <time>2016-02-21T14:33:09.804Z</time>
      </trkpt>
      <trkpt lat="43.79092" lon="5.13215">
        <ele>455</ele>
        <time>2016-02-21T14:33:17.893Z</time>
      </trkpt>
      <trkpt lat="43.79093" lon="5.13216">
        <ele>455</ele>
        <time>2016-02-21T14:33:18.807Z</time>
      </trkpt>
      <trkpt lat="43.79101" lon="5.1322">
        <ele>455</ele>
        <time>2016-02-21T14:33:26.859Z</time>
      </trkpt>
      <trkpt lat="43.79102" lon="5.1322">
        <ele>456</ele>
        <time>2016-02-21T14:33:27.851Z</time>
      </trkpt>
      <trkpt lat="43.79111" lon="5.13222">
        <ele>457</ele>
        <time>2016-02-21T14:33:34.994Z</time>
      </trkpt>
      <trkpt lat="43.79112" lon="5.13222">
        <ele>457</ele>
        <time>2016-02-21T14:33:35.806Z</time>
      </trkpt>
      <trkpt lat="43.7912" lon="5.13225">
        <ele>457</ele>
        <time>2016-02-21T14:33:44.888Z</time>
      </trkpt>
      <trkpt lat="43.79122" lon="5.13225">
        <ele>456</ele>
        <time>2016-02-21T14:33:45.806Z</time>
      </trkpt>
      <trkpt lat="43.79126" lon="5.13228">
        <ele>457</ele>
        <time>2016-02-21T14:34:13.833Z</time>
      </trkpt>
      <trkpt lat="43.79126" lon="5.13228">
        <ele>457</ele>
        <time>2016-02-21T14:34:14.803Z</time>
      </trkpt>
      <trkpt lat="43.79126" lon="5.13228">
        <ele>458</ele>
        <time>2016-02-21T14:34:29.847Z</time>
      </trkpt>
      <trkpt lat="43.79127" lon="5.13229">
        <ele>458</ele>
        <time>2016-02-21T14:34:30.805Z</time>
      </trkpt>
      <trkpt lat="43.79135" lon="5.13232">
        <ele>457</ele>
        <time>2016-02-21T14:34:37.878Z</time>
      </trkpt>
      <trkpt lat="43.79137" lon="5.13233">
        <ele>457</ele>
        <time>2016-02-21T14:34:38.810Z</time>
      </trkpt>
      <trkpt lat="43.79143" lon="5.13239">
        <ele>453</ele>
        <time>2016-02-21T14:34:46.836Z</time>
      </trkpt>
      <trkpt lat="43.79145" lon="5.13238">
        <ele>454</ele>
        <time>2016-02-21T14:34:47.800Z</time>
      </trkpt>
      <trkpt lat="43.79151" lon="5.13244">
        <ele>455</ele>
        <time>2016-02-21T14:34:54.893Z</time>
      </trkpt>
      <trkpt lat="43.79153" lon="5.13245">
        <ele>455</ele>
        <time>2016-02-21T14:34:55.808Z</time>
      </trkpt>
      <trkpt lat="43.7916" lon="5.13252">
        <ele>457</ele>
        <time>2016-02-21T14:35:03.860Z</time>
      </trkpt>
      <trkpt lat="43.79161" lon="5.13253">
        <ele>457</ele>
        <time>2016-02-21T14:35:04.799Z</time>
      </trkpt>
      <trkpt lat="43.79163" lon="5.13263">
        <ele>457</ele>
        <time>2016-02-21T14:35:15.857Z</time>
      </trkpt>
      <trkpt lat="43.79164" lon="5.13265">
        <ele>457</ele>
        <time>2016-02-21T14:35:16.801Z</time>
      </trkpt>
      <trkpt lat="43.79168" lon="5.13275">
        <ele>459</ele>
        <time>2016-02-21T14:35:24.861Z</time>
      </trkpt>
      <trkpt lat="43.79169" lon="5.13277">
        <ele>459</ele>
        <time>2016-02-21T14:35:25.800Z</time>
      </trkpt>
      <trkpt lat="43.79174" lon="5.13285">
        <ele>460</ele>
        <time>2016-02-21T14:35:31.892Z</time>
      </trkpt>
      <trkpt lat="43.79175" lon="5.13287">
        <ele>460</ele>
        <time>2016-02-21T14:35:32.799Z</time>
      </trkpt>
      <trkpt lat="43.79177" lon="5.13298">
        <ele>461</ele>
        <time>2016-02-21T14:35:39.893Z</time>
      </trkpt>
      <trkpt lat="43.79177" lon="5.13299">
        <ele>461</ele>
        <time>2016-02-21T14:35:40.800Z</time>
      </trkpt>
      <trkpt lat="43.79183" lon="5.13308">
        <ele>462</ele>
        <time>2016-02-21T14:35:53.846Z</time>
      </trkpt>
      <trkpt lat="43.79183" lon="5.13308">
        <ele>462</ele>
        <time>2016-02-21T14:35:54.800Z</time>
      </trkpt>
      <trkpt lat="43.79183" lon="5.13313">
        <ele>458</ele>
        <time>2016-02-21T14:36:10.799Z</time>
      </trkpt>
      <trkpt lat="43.79183" lon="5.13313">
        <ele>458</ele>
        <time>2016-02-21T14:36:10.825Z</time>
      </trkpt>
      <trkpt lat="43.79183" lon="5.13313">
        <ele>458</ele>
        <time>2016-02-21T14:36:10.845Z</time>
      </trkpt>
      <trkpt lat="43.79183" lon="5.13313">
        <ele>458</ele>
        <time>2016-02-21T14:36:11.800Z</time>
      </trkpt>
      <trkpt lat="43.79183" lon="5.13313">
        <ele>459</ele>
        <time>2016-02-21T14:36:17.900Z</time>
      </trkpt>
      <trkpt lat="43.79184" lon="5.13313">
        <ele>459</ele>
        <time>2016-02-21T14:36:18.804Z</time>
      </trkpt>
      <trkpt lat="43.79184" lon="5.13314">
        <ele>459</ele>
        <time>2016-02-21T14:36:26.861Z</time>
      </trkpt>
      <trkpt lat="43.79184" lon="5.13314">
        <ele>460</ele>
        <time>2016-02-21T14:36:27.805Z</time>
      </trkpt>
      <trkpt lat="43.79185" lon="5.13314">
        <ele>461</ele>
        <time>2016-02-21T14:36:32.802Z</time>
      </trkpt>
      <trkpt lat="43.79185" lon="5.13314">
        <ele>461</ele>
        <time>2016-02-21T14:36:32.839Z</time>
      </trkpt>
      <trkpt lat="43.79185" lon="5.13314">
        <ele>462</ele>
        <time>2016-02-21T14:36:51.883Z</time>
      </trkpt>
      <trkpt lat="43.79185" lon="5.13313">
        <ele>462</ele>
        <time>2016-02-21T14:36:52.802Z</time>
      </trkpt>
      <trkpt lat="43.79188" lon="5.1331">
        <ele>463</ele>
        <time>2016-02-21T14:37:23.893Z</time>
      </trkpt>
      <trkpt lat="43.79189" lon="5.1331">
        <ele>463</ele>
        <time>2016-02-21T14:37:24.807Z</time>
      </trkpt>
      <trkpt lat="43.79188" lon="5.1331">
        <ele>463</ele>
        <time>2016-02-21T14:37:24.899Z</time>
      </trkpt>
      <trkpt lat="43.79188" lon="5.13309">
        <ele>463</ele>
        <time>2016-02-21T14:37:25.850Z</time>
      </trkpt>
      <trkpt lat="43.79193" lon="5.13309">
        <ele>462</ele>
        <time>2016-02-21T14:37:35.989Z</time>
      </trkpt>
      <trkpt lat="43.79194" lon="5.13308">
        <ele>462</ele>
        <time>2016-02-21T14:37:36.803Z</time>
      </trkpt>
      <trkpt lat="43.79194" lon="5.13307">
        <ele>461</ele>
        <time>2016-02-21T14:37:55.857Z</time>
      </trkpt>
      <trkpt lat="43.79195" lon="5.13307">
        <ele>461</ele>
        <time>2016-02-21T14:37:56.800Z</time>
      </trkpt>
      <trkpt lat="43.79202" lon="5.13306">
        <ele>462</ele>
        <time>2016-02-21T14:38:30.920Z</time>
      </trkpt>
      <trkpt lat="43.79204" lon="5.13306">
        <ele>461</ele>
        <time>2016-02-21T14:38:31.808Z</time>
      </trkpt>
      <trkpt lat="43.79213" lon="5.13304">
        <ele>460</ele>
        <time>2016-02-21T14:38:36.857Z</time>
      </trkpt>
      <trkpt lat="43.79215" lon="5.13305">
        <ele>461</ele>
        <time>2016-02-21T14:38:37.800Z</time>
      </trkpt>
      <trkpt lat="43.79223" lon="5.13308">
        <ele>462</ele>
        <time>2016-02-21T14:38:44.911Z</time>
      </trkpt>
      <trkpt lat="43.79225" lon="5.13309">
        <ele>463</ele>
        <time>2016-02-21T14:38:45.801Z</time>
      </trkpt>
      <trkpt lat="43.79233" lon="5.1331">
        <ele>463</ele>
        <time>2016-02-21T14:38:50.834Z</time>
      </trkpt>
      <trkpt lat="43.79234" lon="5.1331">
        <ele>464</ele>
        <time>2016-02-21T14:38:51.800Z</time>
      </trkpt>
      <trkpt lat="43.79242" lon="5.13312">
        <ele>466</ele>
        <time>2016-02-21T14:38:58.858Z</time>
      </trkpt>
      <trkpt lat="43.79243" lon="5.13313">
        <ele>466</ele>
        <time>2016-02-21T14:38:59.799Z</time>
      </trkpt>
      <trkpt lat="43.7925" lon="5.1332">
        <ele>461</ele>
        <time>2016-02-21T14:39:06.984Z</time>
      </trkpt>
      <trkpt lat="43.79252" lon="5.13321">
        <ele>461</ele>
        <time>2016-02-21T14:39:07.804Z</time>
      </trkpt>
      <trkpt lat="43.79259" lon="5.13324">
        <ele>463</ele>
        <time>2016-02-21T14:39:13.884Z</time>
      </trkpt>
      <trkpt lat="43.79261" lon="5.13325">
        <ele>462</ele>
        <time>2016-02-21T14:39:14.800Z</time>
      </trkpt>
      <trkpt lat="43.79266" lon="5.13324">
        <ele>465</ele>
        <time>2016-02-21T14:39:19.853Z</time>
      </trkpt>
      <trkpt lat="43.79267" lon="5.13324">
        <ele>465</ele>
        <time>2016-02-21T14:39:20.804Z</time>
      </trkpt>
      <trkpt lat="43.79267" lon="5.13324">
        <ele>465</ele>
        <time>2016-02-21T14:39:20.900Z</time>
      </trkpt>
      <trkpt lat="43.79269" lon="5.13324">
        <ele>466</ele>
        <time>2016-02-21T14:39:21.802Z</time>
      </trkpt>
      <trkpt lat="43.79276" lon="5.13322">
        <ele>467</ele>
        <time>2016-02-21T14:39:28.889Z</time>
      </trkpt>
      <trkpt lat="43.79278" lon="5.13321">
        <ele>468</ele>
        <time>2016-02-21T14:39:29.805Z</time>
      </trkpt>
      <trkpt lat="43.79286" lon="5.13318">
        <ele>470</ele>
        <time>2016-02-21T14:39:35.837Z</time>
      </trkpt>
      <trkpt lat="43.79287" lon="5.13318">
        <ele>470</ele>
        <time>2016-02-21T14:39:36.811Z</time>
      </trkpt>
      <trkpt lat="43.79295" lon="5.13315">
        <ele>471</ele>
        <time>2016-02-21T14:39:44.888Z</time>
      </trkpt>
      <trkpt lat="43.79296" lon="5.13314">
        <ele>471</ele>
        <time>2016-02-21T14:39:45.802Z</time>
      </trkpt>
      <trkpt lat="43.79302" lon="5.13308">
        <ele>471</ele>
        <time>2016-02-21T14:40:00.885Z</time>
      </trkpt>
      <trkpt lat="43.79303" lon="5.13307">
        <ele>470</ele>
        <time>2016-02-21T14:40:01.806Z</time>
      </trkpt>
      <trkpt lat="43.7931" lon="5.13299">
        <ele>470</ele>
        <time>2016-02-21T14:40:09.834Z</time>
      </trkpt>
      <trkpt lat="43.7931" lon="5.13299">
        <ele>470</ele>
        <time>2016-02-21T14:40:09.864Z</time>
      </trkpt>
      <trkpt lat="43.79316" lon="5.1329">
        <ele>470</ele>
        <time>2016-02-21T14:40:16.835Z</time>
      </trkpt>
      <trkpt lat="43.79317" lon="5.13288">
        <ele>470</ele>
        <time>2016-02-21T14:40:17.803Z</time>
      </trkpt>
      <trkpt lat="43.79325" lon="5.13281">
        <ele>473</ele>
        <time>2016-02-21T14:40:25.870Z</time>
      </trkpt>
      <trkpt lat="43.79326" lon="5.13281">
        <ele>474</ele>
        <time>2016-02-21T14:40:26.805Z</time>
      </trkpt>
      <trkpt lat="43.79334" lon="5.13276">
        <ele>474</ele>
        <time>2016-02-21T14:40:33.886Z</time>
      </trkpt>
      <trkpt lat="43.79335" lon="5.13275">
        <ele>475</ele>
        <time>2016-02-21T14:40:34.803Z</time>
      </trkpt>
      <trkpt lat="43.79342" lon="5.1327">
        <ele>476</ele>
        <time>2016-02-21T14:40:44.830Z</time>
      </trkpt>
      <trkpt lat="43.79343" lon="5.13268">
        <ele>475</ele>
        <time>2016-02-21T14:40:45.800Z</time>
      </trkpt>
      <trkpt lat="43.79348" lon="5.13261">
        <ele>474</ele>
        <time>2016-02-21T14:42:00.885Z</time>
      </trkpt>
      <trkpt lat="43.7935" lon="5.1326">
        <ele>474</ele>
        <time>2016-02-21T14:42:01.808Z</time>
      </trkpt>
      <trkpt lat="43.79356" lon="5.13251">
        <ele>476</ele>
        <time>2016-02-21T14:42:09.835Z</time>
      </trkpt>
      <trkpt lat="43.79356" lon="5.1325">
        <ele>476</ele>
        <time>2016-02-21T14:42:10.800Z</time>
      </trkpt>
      <trkpt lat="43.79362" lon="5.13243">
        <ele>475</ele>
        <time>2016-02-21T14:42:44.016Z</time>
      </trkpt>
      <trkpt lat="43.79363" lon="5.13243">
        <ele>475</ele>
        <time>2016-02-21T14:42:44.800Z</time>
      </trkpt>
      <trkpt lat="43.79371" lon="5.13236">
        <ele>476</ele>
        <time>2016-02-21T14:42:54.836Z</time>
      </trkpt>
      <trkpt lat="43.79371" lon="5.13236">
        <ele>476</ele>
        <time>2016-02-21T14:42:54.867Z</time>
      </trkpt>
      <trkpt lat="43.79379" lon="5.13235">
        <ele>474</ele>
        <time>2016-02-21T14:43:03.844Z</time>
      </trkpt>
      <trkpt lat="43.7938" lon="5.13235">
        <ele>474</ele>
        <time>2016-02-21T14:43:04.796Z</time>
      </trkpt>
      <trkpt lat="43.79381" lon="5.13235">
        <ele>474</ele>
        <time>2016-02-21T14:43:05.985Z</time>
      </trkpt>
      <trkpt lat="43.7938" lon="5.13235">
        <ele>474</ele>
        <time>2016-02-21T14:43:06.803Z</time>
      </trkpt>
      <trkpt lat="43.79381" lon="5.13235">
        <ele>474</ele>
        <time>2016-02-21T14:43:06.866Z</time>
      </trkpt>
      <trkpt lat="43.79381" lon="5.13235">
        <ele>474</ele>
        <time>2016-02-21T14:43:07.805Z</time>
      </trkpt>
      <trkpt lat="43.79385" lon="5.13233">
        <ele>471</ele>
        <time>2016-02-21T14:43:31.804Z</time>
      </trkpt>
      <trkpt lat="43.79385" lon="5.13233">
        <ele>471</ele>
        <time>2016-02-21T14:43:31.966Z</time>
      </trkpt>
      <trkpt lat="43.79385" lon="5.13233">
        <ele>471</ele>
        <time>2016-02-21T14:43:31.980Z</time>
      </trkpt>
      <trkpt lat="43.79385" lon="5.13233">
        <ele>470</ele>
        <time>2016-02-21T14:43:32.804Z</time>
      </trkpt>
      <trkpt lat="43.79393" lon="5.13233">
        <ele>472</ele>
        <time>2016-02-21T14:43:45.857Z</time>
      </trkpt>
      <trkpt lat="43.79392" lon="5.13233">
        <ele>472</ele>
        <time>2016-02-21T14:43:46.800Z</time>
      </trkpt>
      <trkpt lat="43.79392" lon="5.13234">
        <ele>472</ele>
        <time>2016-02-21T14:43:56.864Z</time>
      </trkpt>
      <trkpt lat="43.79393" lon="5.13235">
        <ele>472</ele>
        <time>2016-02-21T14:43:57.805Z</time>
      </trkpt>
      <trkpt lat="43.79401" lon="5.13236">
        <ele>474</ele>
        <time>2016-02-21T14:44:04.861Z</time>
      </trkpt>
      <trkpt lat="43.79402" lon="5.13236">
        <ele>473</ele>
        <time>2016-02-21T14:44:05.801Z</time>
      </trkpt>
      <trkpt lat="43.79411" lon="5.13237">
        <ele>473</ele>
        <time>2016-02-21T14:44:14.872Z</time>
      </trkpt>
      <trkpt lat="43.79412" lon="5.13238">
        <ele>474</ele>
        <time>2016-02-21T14:44:15.804Z</time>
      </trkpt>
      <trkpt lat="43.79419" lon="5.13245">
        <ele>474</ele>
        <time>2016-02-21T14:44:24.829Z</time>
      </trkpt>
      <trkpt lat="43.7942" lon="5.13246">
        <ele>473</ele>
        <time>2016-02-21T14:44:25.805Z</time>
      </trkpt>
      <trkpt lat="43.79427" lon="5.13251">
        <ele>473</ele>
        <time>2016-02-21T14:44:33.834Z</time>
      </trkpt>
      <trkpt lat="43.79428" lon="5.13252">
        <ele>473</ele>
        <time>2016-02-21T14:44:34.799Z</time>
      </trkpt>
      <trkpt lat="43.79436" lon="5.13257">
        <ele>472</ele>
        <time>2016-02-21T14:44:44.856Z</time>
      </trkpt>
      <trkpt lat="43.79437" lon="5.13257">
        <ele>473</ele>
        <time>2016-02-21T14:44:45.799Z</time>
      </trkpt>
      <trkpt lat="43.79444" lon="5.13264">
        <ele>473</ele>
        <time>2016-02-21T14:44:54.861Z</time>
      </trkpt>
      <trkpt lat="43.79444" lon="5.13265">
        <ele>474</ele>
        <time>2016-02-21T14:44:55.800Z</time>
      </trkpt>
      <trkpt lat="43.79451" lon="5.13272">
        <ele>479</ele>
        <time>2016-02-21T14:45:56.885Z</time>
      </trkpt>
      <trkpt lat="43.79451" lon="5.13271">
        <ele>479</ele>
        <time>2016-02-21T14:45:57.804Z</time>
      </trkpt>
      <trkpt lat="43.79452" lon="5.13273">
        <ele>479</ele>
        <time>2016-02-21T14:46:18.862Z</time>
      </trkpt>
      <trkpt lat="43.79453" lon="5.13273">
        <ele>479</ele>
        <time>2016-02-21T14:46:19.807Z</time>
      </trkpt>
      <trkpt lat="43.79453" lon="5.13273">
        <ele>479</ele>
        <time>2016-02-21T14:46:19.841Z</time>
      </trkpt>
      <trkpt lat="43.79453" lon="5.13273">
        <ele>479</ele>
        <time>2016-02-21T14:46:19.883Z</time>
      </trkpt>
      <trkpt lat="43.79452" lon="5.13272">
        <ele>481</ele>
        <time>2016-02-21T14:46:54.875Z</time>
      </trkpt>
      <trkpt lat="43.79452" lon="5.13272">
        <ele>480</ele>
        <time>2016-02-21T14:46:55.806Z</time>
      </trkpt>
      <trkpt lat="43.79451" lon="5.13271">
        <ele>480</ele>
        <time>2016-02-21T14:47:14.919Z</time>
      </trkpt>
      <trkpt lat="43.79451" lon="5.13272">
        <ele>480</ele>
        <time>2016-02-21T14:47:15.799Z</time>
      </trkpt>
      <trkpt lat="43.79451" lon="5.13272">
        <ele>480</ele>
        <time>2016-02-21T14:47:15.885Z</time>
      </trkpt>
      <trkpt lat="43.79452" lon="5.13272">
        <ele>480</ele>
        <time>2016-02-21T14:47:16.803Z</time>
      </trkpt>
      <trkpt lat="43.79459" lon="5.13268">
        <ele>479</ele>
        <time>2016-02-21T14:48:13.865Z</time>
      </trkpt>
      <trkpt lat="43.7946" lon="5.13266">
        <ele>480</ele>
        <time>2016-02-21T14:48:14.800Z</time>
      </trkpt>
      <trkpt lat="43.79467" lon="5.13259">
        <ele>479</ele>
        <time>2016-02-21T14:48:24.889Z</time>
      </trkpt>
      <trkpt lat="43.79469" lon="5.13259">
        <ele>479</ele>
        <time>2016-02-21T14:48:25.807Z</time>
      </trkpt>
      <trkpt lat="43.79471" lon="5.13258">
        <ele>481</ele>
        <time>2016-02-21T14:48:34.851Z</time>
      </trkpt>
      <trkpt lat="43.79471" lon="5.13258">
        <ele>481</ele>
        <time>2016-02-21T14:48:35.799Z</time>
      </trkpt>
      <trkpt lat="43.79471" lon="5.13258">
        <ele>481</ele>
        <time>2016-02-21T14:48:35.861Z</time>
      </trkpt>
      <trkpt lat="43.79473" lon="5.13258">
        <ele>480</ele>
        <time>2016-02-21T14:48:36.799Z</time>
      </trkpt>
      <trkpt lat="43.79481" lon="5.13258">
        <ele>483</ele>
        <time>2016-02-21T14:49:22.842Z</time>
      </trkpt>
      <trkpt lat="43.79482" lon="5.13258">
        <ele>483</ele>
        <time>2016-02-21T14:49:23.808Z</time>
      </trkpt>
      <trkpt lat="43.79489" lon="5.13256">
        <ele>482</ele>
        <time>2016-02-21T14:49:30.830Z</time>
      </trkpt>
      <trkpt lat="43.79491" lon="5.13255">
        <ele>481</ele>
        <time>2016-02-21T14:49:31.804Z</time>
      </trkpt>
      <trkpt lat="43.79498" lon="5.13254">
        <ele>480</ele>
        <time>2016-02-21T14:49:38.918Z</time>
      </trkpt>
      <trkpt lat="43.795" lon="5.13253">
        <ele>480</ele>
        <time>2016-02-21T14:49:39.805Z</time>
      </trkpt>
      <trkpt lat="43.79503" lon="5.13253">
        <ele>477</ele>
        <time>2016-02-21T14:49:49.886Z</time>
      </trkpt>
      <trkpt lat="43.79502" lon="5.13252">
        <ele>477</ele>
        <time>2016-02-21T14:49:50.805Z</time>
      </trkpt>
      <trkpt lat="43.79503" lon="5.13253">
        <ele>477</ele>
        <time>2016-02-21T14:49:57.852Z</time>
      </trkpt>
      <trkpt lat="43.79503" lon="5.13253">
        <ele>477</ele>
        <time>2016-02-21T14:49:58.797Z</time>
      </trkpt>
      <trkpt lat="43.79504" lon="5.13252">
        <ele>479</ele>
        <time>2016-02-21T14:50:00.854Z</time>
      </trkpt>
      <trkpt lat="43.79504" lon="5.13252">
        <ele>478</ele>
        <time>2016-02-21T14:50:01.798Z</time>
      </trkpt>
      <trkpt lat="43.79504" lon="5.13252">
        <ele>478</ele>
        <time>2016-02-21T14:50:01.862Z</time>
      </trkpt>
      <trkpt lat="43.79504" lon="5.13252">
        <ele>478</ele>
        <time>2016-02-21T14:50:02.806Z</time>
      </trkpt>
      <trkpt lat="43.79512" lon="5.13248">
        <ele>479</ele>
        <time>2016-02-21T14:50:11.859Z</time>
      </trkpt>
      <trkpt lat="43.79513" lon="5.13248">
        <ele>479</ele>
        <time>2016-02-21T14:50:12.804Z</time>
      </trkpt>
      <trkpt lat="43.79521" lon="5.13243">
        <ele>481</ele>
        <time>2016-02-21T14:50:25.900Z</time>
      </trkpt>
      <trkpt lat="43.79522" lon="5.13243">
        <ele>480</ele>
        <time>2016-02-21T14:50:26.805Z</time>
      </trkpt>
      <trkpt lat="43.7953" lon="5.1324">
        <ele>479</ele>
        <time>2016-02-21T14:50:35.836Z</time>
      </trkpt>
      <trkpt lat="43.79531" lon="5.1324">
        <ele>479</ele>
        <time>2016-02-21T14:50:36.807Z</time>
      </trkpt>
      <trkpt lat="43.79539" lon="5.13235">
        <ele>479</ele>
        <time>2016-02-21T14:50:45.879Z</time>
      </trkpt>
      <trkpt lat="43.79541" lon="5.13234">
        <ele>479</ele>
        <time>2016-02-21T14:50:46.802Z</time>
      </trkpt>
      <trkpt lat="43.79548" lon="5.13227">
        <ele>479</ele>
        <time>2016-02-21T14:50:54.850Z</time>
      </trkpt>
      <trkpt lat="43.79548" lon="5.13227">
        <ele>479</ele>
        <time>2016-02-21T14:50:54.876Z</time>
      </trkpt>
      <trkpt lat="43.79552" lon="5.1322">
        <ele>476</ele>
        <time>2016-02-21T14:51:13.880Z</time>
      </trkpt>
      <trkpt lat="43.79551" lon="5.13215">
        <ele>476</ele>
        <time>2016-02-21T14:51:14.803Z</time>
      </trkpt>
      <trkpt lat="43.79548" lon="5.13205">
        <ele>474</ele>
        <time>2016-02-21T14:51:21.839Z</time>
      </trkpt>
      <trkpt lat="43.79547" lon="5.13203">
        <ele>473</ele>
        <time>2016-02-21T14:51:22.805Z</time>
      </trkpt>
      <trkpt lat="43.79541" lon="5.13193">
        <ele>474</ele>
        <time>2016-02-21T14:51:32.859Z</time>
      </trkpt>
      <trkpt lat="43.7954" lon="5.13192">
        <ele>473</ele>
        <time>2016-02-21T14:51:33.808Z</time>
      </trkpt>
      <trkpt lat="43.79541" lon="5.1319">
        <ele>473</ele>
        <time>2016-02-21T14:51:37.801Z</time>
      </trkpt>
      <trkpt lat="43.79541" lon="5.1319">
        <ele>473</ele>
        <time>2016-02-21T14:51:37.836Z</time>
      </trkpt>
      <trkpt lat="43.79543" lon="5.13188">
        <ele>469</ele>
        <time>2016-02-21T14:51:42.894Z</time>
      </trkpt>
      <trkpt lat="43.79541" lon="5.13185">
        <ele>468</ele>
        <time>2016-02-21T14:51:43.806Z</time>
      </trkpt>
      <trkpt lat="43.79533" lon="5.13178">
        <ele>471</ele>
        <time>2016-02-21T14:51:50.860Z</time>
      </trkpt>
      <trkpt lat="43.79532" lon="5.13175">
        <ele>472</ele>
        <time>2016-02-21T14:51:51.804Z</time>
      </trkpt>
      <trkpt lat="43.79525" lon="5.13167">
        <ele>474</ele>
        <time>2016-02-21T14:51:58.859Z</time>
      </trkpt>
      <trkpt lat="43.79524" lon="5.13166">
        <ele>474</ele>
        <time>2016-02-21T14:51:59.804Z</time>
      </trkpt>
      <trkpt lat="43.79521" lon="5.13156">
        <ele>477</ele>
        <time>2016-02-21T14:52:05.861Z</time>
      </trkpt>
      <trkpt lat="43.7952" lon="5.13155">
        <ele>477</ele>
        <time>2016-02-21T14:52:06.805Z</time>
      </trkpt>
      <trkpt lat="43.79518" lon="5.13143">
        <ele>477</ele>
        <time>2016-02-21T14:52:38.983Z</time>
      </trkpt>
      <trkpt lat="43.79519" lon="5.13141">
        <ele>477</ele>
        <time>2016-02-21T14:52:39.809Z</time>
      </trkpt>
      <trkpt lat="43.79522" lon="5.1313">
        <ele>480</ele>
        <time>2016-02-21T14:52:46.836Z</time>
      </trkpt>
      <trkpt lat="43.79521" lon="5.13128">
        <ele>480</ele>
        <time>2016-02-21T14:52:47.805Z</time>
      </trkpt>
      <trkpt lat="43.79523" lon="5.13116">
        <ele>481</ele>
        <time>2016-02-21T14:52:55.992Z</time>
      </trkpt>
      <trkpt lat="43.79524" lon="5.13114">
        <ele>481</ele>
        <time>2016-02-21T14:52:56.807Z</time>
      </trkpt>
      <trkpt lat="43.79526" lon="5.13103">
        <ele>484</ele>
        <time>2016-02-21T14:53:07.916Z</time>
      </trkpt>
      <trkpt lat="43.79526" lon="5.13102">
        <ele>484</ele>
        <time>2016-02-21T14:53:08.806Z</time>
      </trkpt>
      <trkpt lat="43.79526" lon="5.1309">
        <ele>486</ele>
        <time>2016-02-21T14:53:16.896Z</time>
      </trkpt>
      <trkpt lat="43.79527" lon="5.13088">
        <ele>486</ele>
        <time>2016-02-21T14:53:17.806Z</time>
      </trkpt>
      <trkpt lat="43.79528" lon="5.13081">
        <ele>483</ele>
        <time>2016-02-21T14:53:25.866Z</time>
      </trkpt>
      <trkpt lat="43.79528" lon="5.13081">
        <ele>483</ele>
        <time>2016-02-21T14:53:26.805Z</time>
      </trkpt>
      <trkpt lat="43.79529" lon="5.13082">
        <ele>481</ele>
        <time>2016-02-21T14:53:29.910Z</time>
      </trkpt>
      <trkpt lat="43.79528" lon="5.13082">
        <ele>481</ele>
        <time>2016-02-21T14:53:30.806Z</time>
      </trkpt>
      <trkpt lat="43.79528" lon="5.1307">
        <ele>481</ele>
        <time>2016-02-21T14:53:55.920Z</time>
      </trkpt>
      <trkpt lat="43.79528" lon="5.13069">
        <ele>482</ele>
        <time>2016-02-21T14:53:56.807Z</time>
      </trkpt>
      <trkpt lat="43.79528" lon="5.13069">
        <ele>482</ele>
        <time>2016-02-21T14:53:56.851Z</time>
      </trkpt>
      <trkpt lat="43.79528" lon="5.13069">
        <ele>482</ele>
        <time>2016-02-21T14:53:57.806Z</time>
      </trkpt>
      <trkpt lat="43.79526" lon="5.13066">
        <ele>483</ele>
        <time>2016-02-21T14:54:01.894Z</time>
      </trkpt>
      <trkpt lat="43.79525" lon="5.13065">
        <ele>484</ele>
        <time>2016-02-21T14:54:02.806Z</time>
      </trkpt>
      <trkpt lat="43.79526" lon="5.13065">
        <ele>485</ele>
        <time>2016-02-21T14:54:18.921Z</time>
      </trkpt>
      <trkpt lat="43.79526" lon="5.13066">
        <ele>485</ele>
        <time>2016-02-21T14:54:19.807Z</time>
      </trkpt>
      <trkpt lat="43.79526" lon="5.13064">
        <ele>487</ele>
        <time>2016-02-21T14:54:36.325Z</time>
      </trkpt>
      <trkpt lat="43.79524" lon="5.13062">
        <ele>487</ele>
        <time>2016-02-21T15:09:48.807Z</time>
      </trkpt>
      <trkpt lat="43.79524" lon="5.13062">
        <ele>487</ele>
        <time>2016-02-21T15:09:51.365Z</time>
      </trkpt>
      <trkpt lat="43.79524" lon="5.13062">
        <ele>487</ele>
        <time>2016-02-21T15:09:51.387Z</time>
      </trkpt>
      <trkpt lat="43.79524" lon="5.13062">
        <ele>487</ele>
        <time>2016-02-21T15:09:51.399Z</time>
      </trkpt>
      <trkpt lat="43.79525" lon="5.13061">
        <ele>481</ele>
        <time>2016-02-21T15:09:52.372Z</time>
      </trkpt>
      <trkpt lat="43.79516" lon="5.13064">
        <ele>481</ele>
        <time>2016-02-21T15:10:03.836Z</time>
      </trkpt>
      <trkpt lat="43.79516" lon="5.13065">
        <ele>480</ele>
        <time>2016-02-21T15:10:04.835Z</time>
      </trkpt>
      <trkpt lat="43.79508" lon="5.13071">
        <ele>479</ele>
        <time>2016-02-21T15:10:13.887Z</time>
      </trkpt>
      <trkpt lat="43.79507" lon="5.13071">
        <ele>479</ele>
        <time>2016-02-21T15:10:14.805Z</time>
      </trkpt>
      <trkpt lat="43.795" lon="5.13077">
        <ele>476</ele>
        <time>2016-02-21T15:10:22.902Z</time>
      </trkpt>
      <trkpt lat="43.79499" lon="5.13078">
        <ele>476</ele>
        <time>2016-02-21T15:10:23.807Z</time>
      </trkpt>
      <trkpt lat="43.79493" lon="5.13085">
        <ele>475</ele>
        <time>2016-02-21T15:10:30.939Z</time>
      </trkpt>
      <trkpt lat="43.79492" lon="5.13086">
        <ele>475</ele>
        <time>2016-02-21T15:10:31.808Z</time>
      </trkpt>
      <trkpt lat="43.79486" lon="5.13092">
        <ele>471</ele>
        <time>2016-02-21T15:10:39.894Z</time>
      </trkpt>
      <trkpt lat="43.79485" lon="5.13094">
        <ele>470</ele>
        <time>2016-02-21T15:10:40.811Z</time>
      </trkpt>
      <trkpt lat="43.79478" lon="5.131">
        <ele>469</ele>
        <time>2016-02-21T15:10:46.915Z</time>
      </trkpt>
      <trkpt lat="43.79477" lon="5.13101">
        <ele>469</ele>
        <time>2016-02-21T15:10:47.808Z</time>
      </trkpt>
      <trkpt lat="43.79471" lon="5.13109">
        <ele>469</ele>
        <time>2016-02-21T15:10:55.841Z</time>
      </trkpt>
      <trkpt lat="43.79471" lon="5.13109">
        <ele>469</ele>
        <time>2016-02-21T15:10:55.877Z</time>
      </trkpt>
      <trkpt lat="43.79464" lon="5.13116">
        <ele>462</ele>
        <time>2016-02-21T15:11:03.898Z</time>
      </trkpt>
      <trkpt lat="43.79462" lon="5.13116">
        <ele>462</ele>
        <time>2016-02-21T15:11:04.804Z</time>
      </trkpt>
      <trkpt lat="43.79454" lon="5.13121">
        <ele>461</ele>
        <time>2016-02-21T15:11:12.898Z</time>
      </trkpt>
      <trkpt lat="43.79453" lon="5.13121">
        <ele>461</ele>
        <time>2016-02-21T15:11:13.805Z</time>
      </trkpt>
      <trkpt lat="43.79445" lon="5.13126">
        <ele>461</ele>
        <time>2016-02-21T15:11:22.861Z</time>
      </trkpt>
      <trkpt lat="43.79444" lon="5.13126">
        <ele>461</ele>
        <time>2016-02-21T15:11:23.806Z</time>
      </trkpt>
      <trkpt lat="43.79437" lon="5.13131">
        <ele>463</ele>
        <time>2016-02-21T15:11:33.898Z</time>
      </trkpt>
      <trkpt lat="43.79436" lon="5.13131">
        <ele>462</ele>
        <time>2016-02-21T15:11:34.806Z</time>
      </trkpt>
      <trkpt lat="43.79429" lon="5.13137">
        <ele>461</ele>
        <time>2016-02-21T15:11:45.840Z</time>
      </trkpt>
      <trkpt lat="43.79429" lon="5.13137">
        <ele>461</ele>
        <time>2016-02-21T15:11:46.808Z</time>
      </trkpt>
      <trkpt lat="43.79429" lon="5.13136">
        <ele>462</ele>
        <time>2016-02-21T15:11:47.871Z</time>
      </trkpt>
      <trkpt lat="43.79427" lon="5.13136">
        <ele>461</ele>
        <time>2016-02-21T15:11:48.806Z</time>
      </trkpt>
      <trkpt lat="43.7942" lon="5.13143">
        <ele>457</ele>
        <time>2016-02-21T15:12:01.869Z</time>
      </trkpt>
      <trkpt lat="43.79419" lon="5.13143">
        <ele>457</ele>
        <time>2016-02-21T15:12:02.808Z</time>
      </trkpt>
      <trkpt lat="43.79413" lon="5.13145">
        <ele>458</ele>
        <time>2016-02-21T15:12:27.911Z</time>
      </trkpt>
      <trkpt lat="43.7941" lon="5.13146">
        <ele>456</ele>
        <time>2016-02-21T15:12:28.810Z</time>
      </trkpt>
      <trkpt lat="43.79402" lon="5.13146">
        <ele>455</ele>
        <time>2016-02-21T15:12:33.900Z</time>
      </trkpt>
      <trkpt lat="43.794" lon="5.13147">
        <ele>454</ele>
        <time>2016-02-21T15:12:34.811Z</time>
      </trkpt>
      <trkpt lat="43.79393" lon="5.13143">
        <ele>453</ele>
        <time>2016-02-21T15:12:39.866Z</time>
      </trkpt>
      <trkpt lat="43.79391" lon="5.13141">
        <ele>451</ele>
        <time>2016-02-21T15:12:40.806Z</time>
      </trkpt>
      <trkpt lat="43.79383" lon="5.13138">
        <ele>452</ele>
        <time>2016-02-21T15:12:47.862Z</time>
      </trkpt>
      <trkpt lat="43.7938" lon="5.13137">
        <ele>451</ele>
        <time>2016-02-21T15:12:48.836Z</time>
      </trkpt>
      <trkpt lat="43.79375" lon="5.13134">
        <ele>449</ele>
        <time>2016-02-21T15:12:56.870Z</time>
      </trkpt>
      <trkpt lat="43.7937" lon="5.13135">
        <ele>450</ele>
        <time>2016-02-21T15:12:57.809Z</time>
      </trkpt>
      <trkpt lat="43.79363" lon="5.13131">
        <ele>450</ele>
        <time>2016-02-21T15:13:09.863Z</time>
      </trkpt>
      <trkpt lat="43.79361" lon="5.13128">
        <ele>451</ele>
        <time>2016-02-21T15:13:10.804Z</time>
      </trkpt>
      <trkpt lat="43.79355" lon="5.13122">
        <ele>453</ele>
        <time>2016-02-21T15:13:18.866Z</time>
      </trkpt>
      <trkpt lat="43.79355" lon="5.13118">
        <ele>452</ele>
        <time>2016-02-21T15:13:19.809Z</time>
      </trkpt>
      <trkpt lat="43.79349" lon="5.13113">
        <ele>452</ele>
        <time>2016-02-21T15:13:32.867Z</time>
      </trkpt>
      <trkpt lat="43.79346" lon="5.13113">
        <ele>452</ele>
        <time>2016-02-21T15:13:33.806Z</time>
      </trkpt>
      <trkpt lat="43.79338" lon="5.1311">
        <ele>452</ele>
        <time>2016-02-21T15:13:41.883Z</time>
      </trkpt>
      <trkpt lat="43.79335" lon="5.13111">
        <ele>452</ele>
        <time>2016-02-21T15:13:42.808Z</time>
      </trkpt>
      <trkpt lat="43.7933" lon="5.13101">
        <ele>456</ele>
        <time>2016-02-21T15:13:54.866Z</time>
      </trkpt>
      <trkpt lat="43.79329" lon="5.13101">
        <ele>455</ele>
        <time>2016-02-21T15:13:55.805Z</time>
      </trkpt>
      <trkpt lat="43.79323" lon="5.13093">
        <ele>455</ele>
        <time>2016-02-21T15:14:01.866Z</time>
      </trkpt>
      <trkpt lat="43.79325" lon="5.13085">
        <ele>454</ele>
        <time>2016-02-21T15:14:02.857Z</time>
      </trkpt>
      <trkpt lat="43.79316" lon="5.13086">
        <ele>451</ele>
        <time>2016-02-21T15:14:09.861Z</time>
      </trkpt>
      <trkpt lat="43.79314" lon="5.13084">
        <ele>451</ele>
        <time>2016-02-21T15:14:10.803Z</time>
      </trkpt>
      <trkpt lat="43.79308" lon="5.13079">
        <ele>447</ele>
        <time>2016-02-21T15:14:19.869Z</time>
      </trkpt>
      <trkpt lat="43.79301" lon="5.13079">
        <ele>446</ele>
        <time>2016-02-21T15:14:20.808Z</time>
      </trkpt>
      <trkpt lat="43.79294" lon="5.13081">
        <ele>446</ele>
        <time>2016-02-21T15:14:26.895Z</time>
      </trkpt>
      <trkpt lat="43.79292" lon="5.1308">
        <ele>445</ele>
        <time>2016-02-21T15:14:27.807Z</time>
      </trkpt>
      <trkpt lat="43.79287" lon="5.13078">
        <ele>444</ele>
        <time>2016-02-21T15:14:34.862Z</time>
      </trkpt>
      <trkpt lat="43.79288" lon="5.13078">
        <ele>445</ele>
        <time>2016-02-21T15:14:35.805Z</time>
      </trkpt>
      <trkpt lat="43.79288" lon="5.13078">
        <ele>445</ele>
        <time>2016-02-21T15:14:35.872Z</time>
      </trkpt>
      <trkpt lat="43.79288" lon="5.13077">
        <ele>444</ele>
        <time>2016-02-21T15:14:36.810Z</time>
      </trkpt>
      <trkpt lat="43.79282" lon="5.13073">
        <ele>444</ele>
        <time>2016-02-21T15:14:45.897Z</time>
      </trkpt>
      <trkpt lat="43.79283" lon="5.13074">
        <ele>444</ele>
        <time>2016-02-21T15:14:46.804Z</time>
      </trkpt>
      <trkpt lat="43.79283" lon="5.13074">
        <ele>444</ele>
        <time>2016-02-21T15:14:46.872Z</time>
      </trkpt>
      <trkpt lat="43.79284" lon="5.13077">
        <ele>443</ele>
        <time>2016-02-21T15:14:47.805Z</time>
      </trkpt>
      <trkpt lat="43.7928" lon="5.13071">
        <ele>438</ele>
        <time>2016-02-21T15:14:52.867Z</time>
      </trkpt>
      <trkpt lat="43.79276" lon="5.13072">
        <ele>439</ele>
        <time>2016-02-21T15:14:53.907Z</time>
      </trkpt>
      <trkpt lat="43.79268" lon="5.13071">
        <ele>438</ele>
        <time>2016-02-21T15:14:58.909Z</time>
      </trkpt>
      <trkpt lat="43.79266" lon="5.13072">
        <ele>437</ele>
        <time>2016-02-21T15:14:59.806Z</time>
      </trkpt>
      <trkpt lat="43.79258" lon="5.13072">
        <ele>437</ele>
        <time>2016-02-21T15:15:02.894Z</time>
      </trkpt>
      <trkpt lat="43.79257" lon="5.13072">
        <ele>438</ele>
        <time>2016-02-21T15:15:03.897Z</time>
      </trkpt>
      <trkpt lat="43.79249" lon="5.13075">
        <ele>442</ele>
        <time>2016-02-21T15:15:15.854Z</time>
      </trkpt>
      <trkpt lat="43.79248" lon="5.13075">
        <ele>442</ele>
        <time>2016-02-21T15:15:16.834Z</time>
      </trkpt>
      <trkpt lat="43.79242" lon="5.13074">
        <ele>446</ele>
        <time>2016-02-21T15:15:22.932Z</time>
      </trkpt>
      <trkpt lat="43.79236" lon="5.13075">
        <ele>445</ele>
        <time>2016-02-21T15:15:23.811Z</time>
      </trkpt>
      <trkpt lat="43.7923" lon="5.13084">
        <ele>442</ele>
        <time>2016-02-21T15:15:33.840Z</time>
      </trkpt>
      <trkpt lat="43.7923" lon="5.13085">
        <ele>442</ele>
        <time>2016-02-21T15:15:33.876Z</time>
      </trkpt>
      <trkpt lat="43.79222" lon="5.13087">
        <ele>442</ele>
        <time>2016-02-21T15:15:41.870Z</time>
      </trkpt>
      <trkpt lat="43.79219" lon="5.13087">
        <ele>442</ele>
        <time>2016-02-21T15:15:42.808Z</time>
      </trkpt>
      <trkpt lat="43.79213" lon="5.13093">
        <ele>439</ele>
        <time>2016-02-21T15:15:48.860Z</time>
      </trkpt>
      <trkpt lat="43.79211" lon="5.13094">
        <ele>439</ele>
        <time>2016-02-21T15:15:49.809Z</time>
      </trkpt>
      <trkpt lat="43.79203" lon="5.13098">
        <ele>439</ele>
        <time>2016-02-21T15:15:59.840Z</time>
      </trkpt>
      <trkpt lat="43.79201" lon="5.13099">
        <ele>440</ele>
        <time>2016-02-21T15:16:00.805Z</time>
      </trkpt>
      <trkpt lat="43.79194" lon="5.13102">
        <ele>439</ele>
        <time>2016-02-21T15:16:08.896Z</time>
      </trkpt>
      <trkpt lat="43.79192" lon="5.13102">
        <ele>439</ele>
        <time>2016-02-21T15:16:09.858Z</time>
      </trkpt>
      <trkpt lat="43.79186" lon="5.13094">
        <ele>437</ele>
        <time>2016-02-21T15:16:22.897Z</time>
      </trkpt>
      <trkpt lat="43.79186" lon="5.13093">
        <ele>437</ele>
        <time>2016-02-21T15:16:23.844Z</time>
      </trkpt>
      <trkpt lat="43.79178" lon="5.1309">
        <ele>436</ele>
        <time>2016-02-21T15:16:32.865Z</time>
      </trkpt>
      <trkpt lat="43.79176" lon="5.13089">
        <ele>437</ele>
        <time>2016-02-21T15:16:33.808Z</time>
      </trkpt>
      <trkpt lat="43.79171" lon="5.13082">
        <ele>434</ele>
        <time>2016-02-21T15:16:46.916Z</time>
      </trkpt>
      <trkpt lat="43.7917" lon="5.13079">
        <ele>436</ele>
        <time>2016-02-21T15:16:47.803Z</time>
      </trkpt>
      <trkpt lat="43.79163" lon="5.13077">
        <ele>436</ele>
        <time>2016-02-21T15:16:52.830Z</time>
      </trkpt>
      <trkpt lat="43.79157" lon="5.1308">
        <ele>435</ele>
        <time>2016-02-21T15:16:53.802Z</time>
      </trkpt>
      <trkpt lat="43.79158" lon="5.1307">
        <ele>433</ele>
        <time>2016-02-21T15:17:05.894Z</time>
      </trkpt>
      <trkpt lat="43.79157" lon="5.1307">
        <ele>432</ele>
        <time>2016-02-21T15:17:06.805Z</time>
      </trkpt>
      <trkpt lat="43.79156" lon="5.1307">
        <ele>432</ele>
        <time>2016-02-21T15:17:16.862Z</time>
      </trkpt>
      <trkpt lat="43.79155" lon="5.13069">
        <ele>431</ele>
        <time>2016-02-21T15:17:17.929Z</time>
      </trkpt>
      <trkpt lat="43.79163" lon="5.13064">
        <ele>431</ele>
        <time>2016-02-21T15:18:36.891Z</time>
      </trkpt>
      <trkpt lat="43.79165" lon="5.13063">
        <ele>432</ele>
        <time>2016-02-21T15:18:37.806Z</time>
      </trkpt>
      <trkpt lat="43.79168" lon="5.13064">
        <ele>434</ele>
        <time>2016-02-21T15:18:43.891Z</time>
      </trkpt>
      <trkpt lat="43.79168" lon="5.13064">
        <ele>435</ele>
        <time>2016-02-21T15:18:44.812Z</time>
      </trkpt>
      <trkpt lat="43.79169" lon="5.13065">
        <ele>434</ele>
        <time>2016-02-21T15:18:45.860Z</time>
      </trkpt>
      <trkpt lat="43.7917" lon="5.13064">
        <ele>434</ele>
        <time>2016-02-21T15:18:46.803Z</time>
      </trkpt>
      <trkpt lat="43.79178" lon="5.13062">
        <ele>440</ele>
        <time>2016-02-21T15:18:55.865Z</time>
      </trkpt>
      <trkpt lat="43.79179" lon="5.1306">
        <ele>440</ele>
        <time>2016-02-21T15:18:56.806Z</time>
      </trkpt>
      <trkpt lat="43.79185" lon="5.13053">
        <ele>441</ele>
        <time>2016-02-21T15:19:04.902Z</time>
      </trkpt>
      <trkpt lat="43.79185" lon="5.13051">
        <ele>441</ele>
        <time>2016-02-21T15:19:05.810Z</time>
      </trkpt>
      <trkpt lat="43.79187" lon="5.13048">
        <ele>441</ele>
        <time>2016-02-21T15:19:14.919Z</time>
      </trkpt>
      <trkpt lat="43.79187" lon="5.13048">
        <ele>441</ele>
        <time>2016-02-21T15:19:15.814Z</time>
      </trkpt>
      <trkpt lat="43.79188" lon="5.13047">
        <ele>442</ele>
        <time>2016-02-21T15:19:22.888Z</time>
      </trkpt>
      <trkpt lat="43.79189" lon="5.13046">
        <ele>442</ele>
        <time>2016-02-21T15:19:23.811Z</time>
      </trkpt>
      <trkpt lat="43.79185" lon="5.13035">
        <ele>443</ele>
        <time>2016-02-21T15:19:32.805Z</time>
      </trkpt>
      <trkpt lat="43.79185" lon="5.13035">
        <ele>443</ele>
        <time>2016-02-21T15:19:32.841Z</time>
      </trkpt>
      <trkpt lat="43.79184" lon="5.13025">
        <ele>441</ele>
        <time>2016-02-21T15:19:36.888Z</time>
      </trkpt>
      <trkpt lat="43.79184" lon="5.13022">
        <ele>441</ele>
        <time>2016-02-21T15:19:37.807Z</time>
      </trkpt>
      <trkpt lat="43.79182" lon="5.13011">
        <ele>442</ele>
        <time>2016-02-21T15:19:45.862Z</time>
      </trkpt>
      <trkpt lat="43.79182" lon="5.13009">
        <ele>442</ele>
        <time>2016-02-21T15:19:46.811Z</time>
      </trkpt>
      <trkpt lat="43.79183" lon="5.12999">
        <ele>446</ele>
        <time>2016-02-21T15:19:58.839Z</time>
      </trkpt>
      <trkpt lat="43.79183" lon="5.12996">
        <ele>446</ele>
        <time>2016-02-21T15:19:59.812Z</time>
      </trkpt>
      <trkpt lat="43.79182" lon="5.12984">
        <ele>444</ele>
        <time>2016-02-21T15:20:05.891Z</time>
      </trkpt>
      <trkpt lat="43.79182" lon="5.12982">
        <ele>445</ele>
        <time>2016-02-21T15:20:06.806Z</time>
      </trkpt>
      <trkpt lat="43.79179" lon="5.12971">
        <ele>447</ele>
        <time>2016-02-21T15:20:17.894Z</time>
      </trkpt>
      <trkpt lat="43.79178" lon="5.12969">
        <ele>447</ele>
        <time>2016-02-21T15:20:18.811Z</time>
      </trkpt>
      <trkpt lat="43.79177" lon="5.1297">
        <ele>446</ele>
        <time>2016-02-21T15:20:24.907Z</time>
      </trkpt>
      <trkpt lat="43.79177" lon="5.1297">
        <ele>446</ele>
        <time>2016-02-21T15:20:25.814Z</time>
      </trkpt>
      <trkpt lat="43.79177" lon="5.1297">
        <ele>446</ele>
        <time>2016-02-21T15:20:26.895Z</time>
      </trkpt>
      <trkpt lat="43.79177" lon="5.12971">
        <ele>445</ele>
        <time>2016-02-21T15:20:27.813Z</time>
      </trkpt>
      <trkpt lat="43.79173" lon="5.1296">
        <ele>444</ele>
        <time>2016-02-21T15:20:53.868Z</time>
      </trkpt>
      <trkpt lat="43.79173" lon="5.12958">
        <ele>443</ele>
        <time>2016-02-21T15:20:54.807Z</time>
      </trkpt>
      <trkpt lat="43.79169" lon="5.12948">
        <ele>443</ele>
        <time>2016-02-21T15:20:59.976Z</time>
      </trkpt>
      <trkpt lat="43.79168" lon="5.12946">
        <ele>443</ele>
        <time>2016-02-21T15:21:00.806Z</time>
      </trkpt>
      <trkpt lat="43.79162" lon="5.12938">
        <ele>444</ele>
        <time>2016-02-21T15:21:08.904Z</time>
      </trkpt>
      <trkpt lat="43.7916" lon="5.12937">
        <ele>444</ele>
        <time>2016-02-21T15:21:09.812Z</time>
      </trkpt>
      <trkpt lat="43.79157" lon="5.12927">
        <ele>446</ele>
        <time>2016-02-21T15:21:15.892Z</time>
      </trkpt>
      <trkpt lat="43.79156" lon="5.12925">
        <ele>446</ele>
        <time>2016-02-21T15:21:16.810Z</time>
      </trkpt>
      <trkpt lat="43.79156" lon="5.12912">
        <ele>445</ele>
        <time>2016-02-21T15:21:23.867Z</time>
      </trkpt>
      <trkpt lat="43.79156" lon="5.1291">
        <ele>446</ele>
        <time>2016-02-21T15:21:24.809Z</time>
      </trkpt>
      <trkpt lat="43.79158" lon="5.12898">
        <ele>446</ele>
        <time>2016-02-21T15:21:31.892Z</time>
      </trkpt>
      <trkpt lat="43.79159" lon="5.12897">
        <ele>446</ele>
        <time>2016-02-21T15:21:32.811Z</time>
      </trkpt>
      <trkpt lat="43.79163" lon="5.12888">
        <ele>448</ele>
        <time>2016-02-21T15:21:38.881Z</time>
      </trkpt>
      <trkpt lat="43.79164" lon="5.12886">
        <ele>447</ele>
        <time>2016-02-21T15:21:39.815Z</time>
      </trkpt>
      <trkpt lat="43.79165" lon="5.12875">
        <ele>446</ele>
        <time>2016-02-21T15:21:48.908Z</time>
      </trkpt>
      <trkpt lat="43.79164" lon="5.12874">
        <ele>445</ele>
        <time>2016-02-21T15:21:49.811Z</time>
      </trkpt>
      <trkpt lat="43.7916" lon="5.12864">
        <ele>446</ele>
        <time>2016-02-21T15:21:56.902Z</time>
      </trkpt>
      <trkpt lat="43.79159" lon="5.12862">
        <ele>448</ele>
        <time>2016-02-21T15:21:57.814Z</time>
      </trkpt>
      <trkpt lat="43.79157" lon="5.12851">
        <ele>447</ele>
        <time>2016-02-21T15:22:04.867Z</time>
      </trkpt>
      <trkpt lat="43.79156" lon="5.1285">
        <ele>446</ele>
        <time>2016-02-21T15:22:05.811Z</time>
      </trkpt>
      <trkpt lat="43.79152" lon="5.12839">
        <ele>443</ele>
        <time>2016-02-21T15:22:11.872Z</time>
      </trkpt>
      <trkpt lat="43.79151" lon="5.12838">
        <ele>444</ele>
        <time>2016-02-21T15:22:12.807Z</time>
      </trkpt>
      <trkpt lat="43.79146" lon="5.1283">
        <ele>445</ele>
        <time>2016-02-21T15:22:18.862Z</time>
      </trkpt>
      <trkpt lat="43.79145" lon="5.12828">
        <ele>444</ele>
        <time>2016-02-21T15:22:19.812Z</time>
      </trkpt>
      <trkpt lat="43.79141" lon="5.12819">
        <ele>445</ele>
        <time>2016-02-21T15:22:26.892Z</time>
      </trkpt>
      <trkpt lat="43.7914" lon="5.12818">
        <ele>445</ele>
        <time>2016-02-21T15:22:27.806Z</time>
      </trkpt>
      <trkpt lat="43.79138" lon="5.12807">
        <ele>446</ele>
        <time>2016-02-21T15:22:33.936Z</time>
      </trkpt>
      <trkpt lat="43.79137" lon="5.12806">
        <ele>445</ele>
        <time>2016-02-21T15:22:34.808Z</time>
      </trkpt>
      <trkpt lat="43.79138" lon="5.12795">
        <ele>443</ele>
        <time>2016-02-21T15:22:42.008Z</time>
      </trkpt>
      <trkpt lat="43.79137" lon="5.12793">
        <ele>443</ele>
        <time>2016-02-21T15:22:42.809Z</time>
      </trkpt>
      <trkpt lat="43.79136" lon="5.12783">
        <ele>446</ele>
        <time>2016-02-21T15:22:53.863Z</time>
      </trkpt>
      <trkpt lat="43.79136" lon="5.12783">
        <ele>447</ele>
        <time>2016-02-21T15:22:54.810Z</time>
      </trkpt>
      <trkpt lat="43.79136" lon="5.12783">
        <ele>447</ele>
        <time>2016-02-21T15:22:54.924Z</time>
      </trkpt>
      <trkpt lat="43.79137" lon="5.12783">
        <ele>447</ele>
        <time>2016-02-21T15:22:55.808Z</time>
      </trkpt>
      <trkpt lat="43.79136" lon="5.12783">
        <ele>447</ele>
        <time>2016-02-21T15:22:55.843Z</time>
      </trkpt>
      <trkpt lat="43.79136" lon="5.12782">
        <ele>444</ele>
        <time>2016-02-21T15:23:02.877Z</time>
      </trkpt>
      <trkpt lat="43.79138" lon="5.1278">
        <ele>444</ele>
        <time>2016-02-21T15:23:03.810Z</time>
      </trkpt>
      <trkpt lat="43.79139" lon="5.12769">
        <ele>440</ele>
        <time>2016-02-21T15:23:11.891Z</time>
      </trkpt>
      <trkpt lat="43.79139" lon="5.12767">
        <ele>441</ele>
        <time>2016-02-21T15:23:12.813Z</time>
      </trkpt>
      <trkpt lat="43.79138" lon="5.12766">
        <ele>440</ele>
        <time>2016-02-21T15:23:31.821Z</time>
      </trkpt>
      <trkpt lat="43.79138" lon="5.12766">
        <ele>440</ele>
        <time>2016-02-21T15:23:31.832Z</time>
      </trkpt>
      <trkpt lat="43.79138" lon="5.12766">
        <ele>440</ele>
        <time>2016-02-21T15:23:31.843Z</time>
      </trkpt>
      <trkpt lat="43.79139" lon="5.12765">
        <ele>440</ele>
        <time>2016-02-21T15:23:32.810Z</time>
      </trkpt>
      <trkpt lat="43.7914" lon="5.12754">
        <ele>441</ele>
        <time>2016-02-21T15:23:44.859Z</time>
      </trkpt>
      <trkpt lat="43.7914" lon="5.12753">
        <ele>441</ele>
        <time>2016-02-21T15:23:45.812Z</time>
      </trkpt>
      <trkpt lat="43.79136" lon="5.12743">
        <ele>438</ele>
        <time>2016-02-21T15:23:58.890Z</time>
      </trkpt>
      <trkpt lat="43.79135" lon="5.12742">
        <ele>438</ele>
        <time>2016-02-21T15:23:59.816Z</time>
      </trkpt>
      <trkpt lat="43.79129" lon="5.12734">
        <ele>444</ele>
        <time>2016-02-21T15:24:08.869Z</time>
      </trkpt>
      <trkpt lat="43.79129" lon="5.12732">
        <ele>445</ele>
        <time>2016-02-21T15:24:09.809Z</time>
      </trkpt>
      <trkpt lat="43.79122" lon="5.12725">
        <ele>444</ele>
        <time>2016-02-21T15:24:18.879Z</time>
      </trkpt>
      <trkpt lat="43.79121" lon="5.12724">
        <ele>444</ele>
        <time>2016-02-21T15:24:19.809Z</time>
      </trkpt>
      <trkpt lat="43.7912" lon="5.12723">
        <ele>444</ele>
        <time>2016-02-21T15:24:21.889Z</time>
      </trkpt>
      <trkpt lat="43.7912" lon="5.12722">
        <ele>443</ele>
        <time>2016-02-21T15:24:22.806Z</time>
      </trkpt>
      <trkpt lat="43.7912" lon="5.12722">
        <ele>442</ele>
        <time>2016-02-21T15:24:28.890Z</time>
      </trkpt>
      <trkpt lat="43.79119" lon="5.12722">
        <ele>442</ele>
        <time>2016-02-21T15:24:29.809Z</time>
      </trkpt>
      <trkpt lat="43.79111" lon="5.12717">
        <ele>442</ele>
        <time>2016-02-21T15:24:35.867Z</time>
      </trkpt>
      <trkpt lat="43.79111" lon="5.12716">
        <ele>442</ele>
        <time>2016-02-21T15:24:36.809Z</time>
      </trkpt>
      <trkpt lat="43.79103" lon="5.1271">
        <ele>438</ele>
        <time>2016-02-21T15:24:45.895Z</time>
      </trkpt>
      <trkpt lat="43.79102" lon="5.12709">
        <ele>438</ele>
        <time>2016-02-21T15:24:46.809Z</time>
      </trkpt>
      <trkpt lat="43.79094" lon="5.12709">
        <ele>435</ele>
        <time>2016-02-21T15:24:54.893Z</time>
      </trkpt>
      <trkpt lat="43.79093" lon="5.12707">
        <ele>435</ele>
        <time>2016-02-21T15:24:55.812Z</time>
      </trkpt>
      <trkpt lat="43.79093" lon="5.12707">
        <ele>435</ele>
        <time>2016-02-21T15:24:55.874Z</time>
      </trkpt>
      <trkpt lat="43.79093" lon="5.12707">
        <ele>435</ele>
        <time>2016-02-21T15:24:56.811Z</time>
      </trkpt>
      <trkpt lat="43.79092" lon="5.12707">
        <ele>436</ele>
        <time>2016-02-21T15:24:59.908Z</time>
      </trkpt>
      <trkpt lat="43.79092" lon="5.12706">
        <ele>435</ele>
        <time>2016-02-21T15:25:00.835Z</time>
      </trkpt>
      <trkpt lat="43.79083" lon="5.12704">
        <ele>433</ele>
        <time>2016-02-21T15:25:08.894Z</time>
      </trkpt>
      <trkpt lat="43.79082" lon="5.12703">
        <ele>431</ele>
        <time>2016-02-21T15:25:09.812Z</time>
      </trkpt>
      <trkpt lat="43.79074" lon="5.12704">
        <ele>432</ele>
        <time>2016-02-21T15:25:15.871Z</time>
      </trkpt>
      <trkpt lat="43.79073" lon="5.12703">
        <ele>431</ele>
        <time>2016-02-21T15:25:16.811Z</time>
      </trkpt>
      <trkpt lat="43.79064" lon="5.12702">
        <ele>430</ele>
        <time>2016-02-21T15:25:23.850Z</time>
      </trkpt>
      <trkpt lat="43.79063" lon="5.12702">
        <ele>431</ele>
        <time>2016-02-21T15:25:24.814Z</time>
      </trkpt>
      <trkpt lat="43.79054" lon="5.127">
        <ele>431</ele>
        <time>2016-02-21T15:25:32.892Z</time>
      </trkpt>
      <trkpt lat="43.79053" lon="5.12701">
        <ele>431</ele>
        <time>2016-02-21T15:25:33.811Z</time>
      </trkpt>
      <trkpt lat="43.79045" lon="5.12701">
        <ele>433</ele>
        <time>2016-02-21T15:25:55.898Z</time>
      </trkpt>
      <trkpt lat="43.79043" lon="5.12701">
        <ele>432</ele>
        <time>2016-02-21T15:25:56.812Z</time>
      </trkpt>
      <trkpt lat="43.79039" lon="5.12703">
        <ele>430</ele>
        <time>2016-02-21T15:26:57.863Z</time>
      </trkpt>
      <trkpt lat="43.79039" lon="5.12703">
        <ele>430</ele>
        <time>2016-02-21T15:26:58.810Z</time>
      </trkpt>
      <trkpt lat="43.79039" lon="5.12704">
        <ele>432</ele>
        <time>2016-02-21T15:27:03.859Z</time>
      </trkpt>
      <trkpt lat="43.79039" lon="5.12704">
        <ele>433</ele>
        <time>2016-02-21T15:27:04.809Z</time>
      </trkpt>
      <trkpt lat="43.7903" lon="5.12706">
        <ele>432</ele>
        <time>2016-02-21T15:27:31.894Z</time>
      </trkpt>
      <trkpt lat="43.7903" lon="5.12708">
        <ele>432</ele>
        <time>2016-02-21T15:27:32.813Z</time>
      </trkpt>
      <trkpt lat="43.79022" lon="5.12708">
        <ele>432</ele>
        <time>2016-02-21T15:28:15.894Z</time>
      </trkpt>
      <trkpt lat="43.7902" lon="5.12707">
        <ele>431</ele>
        <time>2016-02-21T15:28:16.810Z</time>
      </trkpt>
      <trkpt lat="43.79011" lon="5.12709">
        <ele>429</ele>
        <time>2016-02-21T15:28:22.998Z</time>
      </trkpt>
      <trkpt lat="43.79011" lon="5.12709">
        <ele>429</ele>
        <time>2016-02-21T15:28:23.812Z</time>
      </trkpt>
      <trkpt lat="43.79003" lon="5.12713">
        <ele>430</ele>
        <time>2016-02-21T15:28:29.894Z</time>
      </trkpt>
      <trkpt lat="43.79002" lon="5.12713">
        <ele>431</ele>
        <time>2016-02-21T15:28:30.859Z</time>
      </trkpt>
      <trkpt lat="43.78993" lon="5.12714">
        <ele>432</ele>
        <time>2016-02-21T15:28:38.945Z</time>
      </trkpt>
      <trkpt lat="43.78992" lon="5.12713">
        <ele>432</ele>
        <time>2016-02-21T15:28:39.812Z</time>
      </trkpt>
      <trkpt lat="43.78984" lon="5.12713">
        <ele>432</ele>
        <time>2016-02-21T15:28:46.882Z</time>
      </trkpt>
      <trkpt lat="43.78983" lon="5.12714">
        <ele>432</ele>
        <time>2016-02-21T15:28:47.808Z</time>
      </trkpt>
      <trkpt lat="43.78975" lon="5.12717">
        <ele>431</ele>
        <time>2016-02-21T15:28:58.932Z</time>
      </trkpt>
      <trkpt lat="43.78974" lon="5.12718">
        <ele>431</ele>
        <time>2016-02-21T15:28:59.815Z</time>
      </trkpt>
      <trkpt lat="43.78967" lon="5.12725">
        <ele>430</ele>
        <time>2016-02-21T15:29:08.904Z</time>
      </trkpt>
      <trkpt lat="43.78965" lon="5.12726">
        <ele>430</ele>
        <time>2016-02-21T15:29:09.815Z</time>
      </trkpt>
      <trkpt lat="43.78957" lon="5.12728">
        <ele>429</ele>
        <time>2016-02-21T15:29:16.848Z</time>
      </trkpt>
      <trkpt lat="43.78956" lon="5.12729">
        <ele>429</ele>
        <time>2016-02-21T15:29:17.856Z</time>
      </trkpt>
      <trkpt lat="43.78952" lon="5.1274">
        <ele>429</ele>
        <time>2016-02-21T15:29:27.941Z</time>
      </trkpt>
      <trkpt lat="43.78952" lon="5.12741">
        <ele>429</ele>
        <time>2016-02-21T15:29:28.860Z</time>
      </trkpt>
      <trkpt lat="43.78951" lon="5.12753">
        <ele>428</ele>
        <time>2016-02-21T15:29:37.999Z</time>
      </trkpt>
      <trkpt lat="43.78951" lon="5.12754">
        <ele>428</ele>
        <time>2016-02-21T15:29:38.812Z</time>
      </trkpt>
      <trkpt lat="43.78953" lon="5.12756">
        <ele>427</ele>
        <time>2016-02-21T15:29:41.897Z</time>
      </trkpt>
      <trkpt lat="43.78953" lon="5.12757">
        <ele>428</ele>
        <time>2016-02-21T15:29:42.811Z</time>
      </trkpt>
      <trkpt lat="43.78953" lon="5.12757">
        <ele>427</ele>
        <time>2016-02-21T15:30:23.006Z</time>
      </trkpt>
      <trkpt lat="43.78952" lon="5.12757">
        <ele>427</ele>
        <time>2016-02-21T15:30:23.812Z</time>
      </trkpt>
      <trkpt lat="43.7895" lon="5.12769">
        <ele>427</ele>
        <time>2016-02-21T15:30:31.915Z</time>
      </trkpt>
      <trkpt lat="43.7895" lon="5.1277">
        <ele>427</ele>
        <time>2016-02-21T15:30:32.812Z</time>
      </trkpt>
      <trkpt lat="43.78944" lon="5.12778">
        <ele>426</ele>
        <time>2016-02-21T15:30:43.899Z</time>
      </trkpt>
      <trkpt lat="43.78943" lon="5.12778">
        <ele>426</ele>
        <time>2016-02-21T15:30:44.815Z</time>
      </trkpt>
      <trkpt lat="43.78936" lon="5.12781">
        <ele>427</ele>
        <time>2016-02-21T15:31:02.896Z</time>
      </trkpt>
      <trkpt lat="43.78934" lon="5.12782">
        <ele>426</ele>
        <time>2016-02-21T15:31:03.862Z</time>
      </trkpt>
      <trkpt lat="43.78926" lon="5.12785">
        <ele>424</ele>
        <time>2016-02-21T15:31:09.996Z</time>
      </trkpt>
      <trkpt lat="43.78925" lon="5.12786">
        <ele>424</ele>
        <time>2016-02-21T15:31:10.816Z</time>
      </trkpt>
      <trkpt lat="43.7892" lon="5.12795">
        <ele>422</ele>
        <time>2016-02-21T15:31:16.899Z</time>
      </trkpt>
      <trkpt lat="43.78919" lon="5.12797">
        <ele>421</ele>
        <time>2016-02-21T15:31:17.815Z</time>
      </trkpt>
      <trkpt lat="43.78915" lon="5.12808">
        <ele>419</ele>
        <time>2016-02-21T15:31:26.896Z</time>
      </trkpt>
      <trkpt lat="43.78915" lon="5.12809">
        <ele>419</ele>
        <time>2016-02-21T15:31:27.812Z</time>
      </trkpt>
      <trkpt lat="43.78911" lon="5.12818">
        <ele>419</ele>
        <time>2016-02-21T15:32:09.872Z</time>
      </trkpt>
      <trkpt lat="43.7891" lon="5.1282">
        <ele>420</ele>
        <time>2016-02-21T15:32:10.812Z</time>
      </trkpt>
      <trkpt lat="43.78907" lon="5.1283">
        <ele>419</ele>
        <time>2016-02-21T15:32:16.968Z</time>
      </trkpt>
      <trkpt lat="43.78907" lon="5.12832">
        <ele>419</ele>
        <time>2016-02-21T15:32:17.838Z</time>
      </trkpt>
      <trkpt lat="43.78898" lon="5.12834">
        <ele>420</ele>
        <time>2016-02-21T15:32:24.874Z</time>
      </trkpt>
      <trkpt lat="43.78898" lon="5.12835">
        <ele>420</ele>
        <time>2016-02-21T15:32:25.808Z</time>
      </trkpt>
      <trkpt lat="43.7889" lon="5.12839">
        <ele>417</ele>
        <time>2016-02-21T15:32:31.872Z</time>
      </trkpt>
      <trkpt lat="43.78888" lon="5.1284">
        <ele>417</ele>
        <time>2016-02-21T15:32:32.810Z</time>
      </trkpt>
      <trkpt lat="43.7888" lon="5.12843">
        <ele>417</ele>
        <time>2016-02-21T15:32:37.856Z</time>
      </trkpt>
      <trkpt lat="43.78879" lon="5.12843">
        <ele>417</ele>
        <time>2016-02-21T15:32:38.800Z</time>
      </trkpt>
      <trkpt lat="43.78871" lon="5.12845">
        <ele>414</ele>
        <time>2016-02-21T15:32:45.118Z</time>
      </trkpt>
      <trkpt lat="43.78869" lon="5.12845">
        <ele>414</ele>
        <time>2016-02-21T15:32:45.811Z</time>
      </trkpt>
      <trkpt lat="43.78861" lon="5.12846">
        <ele>413</ele>
        <time>2016-02-21T15:32:51.897Z</time>
      </trkpt>
      <trkpt lat="43.78859" lon="5.12844">
        <ele>413</ele>
        <time>2016-02-21T15:32:52.813Z</time>
      </trkpt>
      <trkpt lat="43.78851" lon="5.12847">
        <ele>410</ele>
        <time>2016-02-21T15:32:58.990Z</time>
      </trkpt>
      <trkpt lat="43.78849" lon="5.12847">
        <ele>410</ele>
        <time>2016-02-21T15:32:59.859Z</time>
      </trkpt>
      <trkpt lat="43.7884" lon="5.1285">
        <ele>409</ele>
        <time>2016-02-21T15:33:07.866Z</time>
      </trkpt>
      <trkpt lat="43.78839" lon="5.1285">
        <ele>410</ele>
        <time>2016-02-21T15:33:08.809Z</time>
      </trkpt>
      <trkpt lat="43.78831" lon="5.12853">
        <ele>410</ele>
        <time>2016-02-21T15:33:15.926Z</time>
      </trkpt>
      <trkpt lat="43.78829" lon="5.12855">
        <ele>410</ele>
        <time>2016-02-21T15:33:16.812Z</time>
      </trkpt>
      <trkpt lat="43.78822" lon="5.1286">
        <ele>409</ele>
        <time>2016-02-21T15:33:25.908Z</time>
      </trkpt>
      <trkpt lat="43.78819" lon="5.12861">
        <ele>408</ele>
        <time>2016-02-21T15:33:26.813Z</time>
      </trkpt>
      <trkpt lat="43.78816" lon="5.12873">
        <ele>407</ele>
        <time>2016-02-21T15:33:58.851Z</time>
      </trkpt>
      <trkpt lat="43.78816" lon="5.12873">
        <ele>407</ele>
        <time>2016-02-21T15:33:58.881Z</time>
      </trkpt>
      <trkpt lat="43.78809" lon="5.12879">
        <ele>413</ele>
        <time>2016-02-21T15:34:14.844Z</time>
      </trkpt>
      <trkpt lat="43.78808" lon="5.12881">
        <ele>414</ele>
        <time>2016-02-21T15:34:15.814Z</time>
      </trkpt>
      <trkpt lat="43.78801" lon="5.1288">
        <ele>414</ele>
        <time>2016-02-21T15:34:22.907Z</time>
      </trkpt>
      <trkpt lat="43.78797" lon="5.12879">
        <ele>414</ele>
        <time>2016-02-21T15:34:23.814Z</time>
      </trkpt>
      <trkpt lat="43.78789" lon="5.12883">
        <ele>412</ele>
        <time>2016-02-21T15:34:31.004Z</time>
      </trkpt>
      <trkpt lat="43.78788" lon="5.12885">
        <ele>411</ele>
        <time>2016-02-21T15:34:31.813Z</time>
      </trkpt>
      <trkpt lat="43.78781" lon="5.12893">
        <ele>411</ele>
        <time>2016-02-21T15:34:38.904Z</time>
      </trkpt>
      <trkpt lat="43.7878" lon="5.12893">
        <ele>411</ele>
        <time>2016-02-21T15:34:39.812Z</time>
      </trkpt>
      <trkpt lat="43.78775" lon="5.12902">
        <ele>414</ele>
        <time>2016-02-21T15:34:47.896Z</time>
      </trkpt>
      <trkpt lat="43.78774" lon="5.12905">
        <ele>413</ele>
        <time>2016-02-21T15:34:48.811Z</time>
      </trkpt>
      <trkpt lat="43.78771" lon="5.12916">
        <ele>411</ele>
        <time>2016-02-21T15:34:52.945Z</time>
      </trkpt>
      <trkpt lat="43.78769" lon="5.12917">
        <ele>410</ele>
        <time>2016-02-21T15:34:53.965Z</time>
      </trkpt>
      <trkpt lat="43.78762" lon="5.1292">
        <ele>408</ele>
        <time>2016-02-21T15:34:58.926Z</time>
      </trkpt>
      <trkpt lat="43.78761" lon="5.12921">
        <ele>408</ele>
        <time>2016-02-21T15:34:59.863Z</time>
      </trkpt>
      <trkpt lat="43.78754" lon="5.1293">
        <ele>411</ele>
        <time>2016-02-21T15:35:06.890Z</time>
      </trkpt>
      <trkpt lat="43.78754" lon="5.1293">
        <ele>411</ele>
        <time>2016-02-21T15:35:07.807Z</time>
      </trkpt>
      <trkpt lat="43.78747" lon="5.12935">
        <ele>411</ele>
        <time>2016-02-21T15:35:12.922Z</time>
      </trkpt>
      <trkpt lat="43.78746" lon="5.12937">
        <ele>409</ele>
        <time>2016-02-21T15:35:13.808Z</time>
      </trkpt>
      <trkpt lat="43.78739" lon="5.12945">
        <ele>413</ele>
        <time>2016-02-21T15:35:24.927Z</time>
      </trkpt>
      <trkpt lat="43.78738" lon="5.12947">
        <ele>414</ele>
        <time>2016-02-21T15:35:25.847Z</time>
      </trkpt>
      <trkpt lat="43.78732" lon="5.12953">
        <ele>413</ele>
        <time>2016-02-21T15:35:29.863Z</time>
      </trkpt>
      <trkpt lat="43.78729" lon="5.12953">
        <ele>411</ele>
        <time>2016-02-21T15:35:30.840Z</time>
      </trkpt>
      <trkpt lat="43.78727" lon="5.12953">
        <ele>409</ele>
        <time>2016-02-21T15:35:31.860Z</time>
      </trkpt>
      <trkpt lat="43.78728" lon="5.12953">
        <ele>409</ele>
        <time>2016-02-21T15:35:31.900Z</time>
      </trkpt>
      <trkpt lat="43.78728" lon="5.12953">
        <ele>409</ele>
        <time>2016-02-21T15:35:31.929Z</time>
      </trkpt>
      <trkpt lat="43.78727" lon="5.12955">
        <ele>410</ele>
        <time>2016-02-21T15:35:32.825Z</time>
      </trkpt>
      <trkpt lat="43.78719" lon="5.12959">
        <ele>408</ele>
        <time>2016-02-21T15:35:36.917Z</time>
      </trkpt>
      <trkpt lat="43.78718" lon="5.1296">
        <ele>408</ele>
        <time>2016-02-21T15:35:37.808Z</time>
      </trkpt>
      <trkpt lat="43.78712" lon="5.12967">
        <ele>406</ele>
        <time>2016-02-21T15:35:41.927Z</time>
      </trkpt>
      <trkpt lat="43.7871" lon="5.12969">
        <ele>406</ele>
        <time>2016-02-21T15:35:42.838Z</time>
      </trkpt>
      <trkpt lat="43.78711" lon="5.12969">
        <ele>406</ele>
        <time>2016-02-21T15:35:44.887Z</time>
      </trkpt>
      <trkpt lat="43.78711" lon="5.12968">
        <ele>407</ele>
        <time>2016-02-21T15:35:45.804Z</time>
      </trkpt>
      <trkpt lat="43.78713" lon="5.12968">
        <ele>406</ele>
        <time>2016-02-21T15:36:01.955Z</time>
      </trkpt>
      <trkpt lat="43.78712" lon="5.12968">
        <ele>406</ele>
        <time>2016-02-21T15:36:02.808Z</time>
      </trkpt>
      <trkpt lat="43.78703" lon="5.12967">
        <ele>407</ele>
        <time>2016-02-21T15:36:11.969Z</time>
      </trkpt>
      <trkpt lat="43.78702" lon="5.12967">
        <ele>407</ele>
        <time>2016-02-21T15:36:12.832Z</time>
      </trkpt>
      <trkpt lat="43.78695" lon="5.12969">
        <ele>409</ele>
        <time>2016-02-21T15:36:17.924Z</time>
      </trkpt>
      <trkpt lat="43.78693" lon="5.12969">
        <ele>408</ele>
        <time>2016-02-21T15:36:18.882Z</time>
      </trkpt>
      <trkpt lat="43.78687" lon="5.12975">
        <ele>404</ele>
        <time>2016-02-21T15:36:23.855Z</time>
      </trkpt>
      <trkpt lat="43.78685" lon="5.12974">
        <ele>409</ele>
        <time>2016-02-21T15:36:24.804Z</time>
      </trkpt>
      <trkpt lat="43.78677" lon="5.12978">
        <ele>404</ele>
        <time>2016-02-21T15:36:30.906Z</time>
      </trkpt>
      <trkpt lat="43.78676" lon="5.12979">
        <ele>404</ele>
        <time>2016-02-21T15:36:31.823Z</time>
      </trkpt>
      <trkpt lat="43.78668" lon="5.12979">
        <ele>411</ele>
        <time>2016-02-21T15:36:39.876Z</time>
      </trkpt>
      <trkpt lat="43.78667" lon="5.1298">
        <ele>411</ele>
        <time>2016-02-21T15:36:40.811Z</time>
      </trkpt>
      <trkpt lat="43.78661" lon="5.12979">
        <ele>414</ele>
        <time>2016-02-21T15:36:47.942Z</time>
      </trkpt>
      <trkpt lat="43.78657" lon="5.12982">
        <ele>415</ele>
        <time>2016-02-21T15:36:48.807Z</time>
      </trkpt>
      <trkpt lat="43.7865" lon="5.12988">
        <ele>414</ele>
        <time>2016-02-21T15:36:53.927Z</time>
      </trkpt>
      <trkpt lat="43.78649" lon="5.12989">
        <ele>414</ele>
        <time>2016-02-21T15:36:54.849Z</time>
      </trkpt>
      <trkpt lat="43.78647" lon="5.12999">
        <ele>415</ele>
        <time>2016-02-21T15:36:58.866Z</time>
      </trkpt>
      <trkpt lat="43.78645" lon="5.13005">
        <ele>414</ele>
        <time>2016-02-21T15:36:59.805Z</time>
      </trkpt>
      <trkpt lat="43.78644" lon="5.13014">
        <ele>414</ele>
        <time>2016-02-21T15:37:05.868Z</time>
      </trkpt>
      <trkpt lat="43.78644" lon="5.13017">
        <ele>413</ele>
        <time>2016-02-21T15:37:06.876Z</time>
      </trkpt>
      <trkpt lat="43.78642" lon="5.13029">
        <ele>410</ele>
        <time>2016-02-21T15:37:16.921Z</time>
      </trkpt>
      <trkpt lat="43.78642" lon="5.13031">
        <ele>410</ele>
        <time>2016-02-21T15:37:17.843Z</time>
      </trkpt>
      <trkpt lat="43.78645" lon="5.1304">
        <ele>411</ele>
        <time>2016-02-21T15:37:29.881Z</time>
      </trkpt>
      <trkpt lat="43.78644" lon="5.13043">
        <ele>409</ele>
        <time>2016-02-21T15:37:30.829Z</time>
      </trkpt>
      <trkpt lat="43.78643" lon="5.13054">
        <ele>411</ele>
        <time>2016-02-21T15:37:38.942Z</time>
      </trkpt>
      <trkpt lat="43.78641" lon="5.13056">
        <ele>412</ele>
        <time>2016-02-21T15:37:39.815Z</time>
      </trkpt>
      <trkpt lat="43.78637" lon="5.13064">
        <ele>410</ele>
        <time>2016-02-21T15:38:07.900Z</time>
      </trkpt>
      <trkpt lat="43.78636" lon="5.13066">
        <ele>411</ele>
        <time>2016-02-21T15:38:08.813Z</time>
      </trkpt>
      <trkpt lat="43.78632" lon="5.13074">
        <ele>410</ele>
        <time>2016-02-21T15:38:16.869Z</time>
      </trkpt>
      <trkpt lat="43.78631" lon="5.13077">
        <ele>409</ele>
        <time>2016-02-21T15:38:17.815Z</time>
      </trkpt>
      <trkpt lat="43.78628" lon="5.13087">
        <ele>408</ele>
        <time>2016-02-21T15:38:22.868Z</time>
      </trkpt>
      <trkpt lat="43.78628" lon="5.13089">
        <ele>409</ele>
        <time>2016-02-21T15:38:23.810Z</time>
      </trkpt>
      <trkpt lat="43.78621" lon="5.13095">
        <ele>407</ele>
        <time>2016-02-21T15:38:29.903Z</time>
      </trkpt>
      <trkpt lat="43.7862" lon="5.13096">
        <ele>407</ele>
        <time>2016-02-21T15:38:30.816Z</time>
      </trkpt>
      <trkpt lat="43.78612" lon="5.13102">
        <ele>406</ele>
        <time>2016-02-21T15:38:38.045Z</time>
      </trkpt>
      <trkpt lat="43.78611" lon="5.13102">
        <ele>405</ele>
        <time>2016-02-21T15:38:38.865Z</time>
      </trkpt>
      <trkpt lat="43.78604" lon="5.13108">
        <ele>407</ele>
        <time>2016-02-21T15:38:47.016Z</time>
      </trkpt>
      <trkpt lat="43.78605" lon="5.13113">
        <ele>407</ele>
        <time>2016-02-21T15:38:47.809Z</time>
      </trkpt>
      <trkpt lat="43.78599" lon="5.13123">
        <ele>401</ele>
        <time>2016-02-21T15:38:53.799Z</time>
      </trkpt>
      <trkpt lat="43.78599" lon="5.13123">
        <ele>401</ele>
        <time>2016-02-21T15:38:53.829Z</time>
      </trkpt>
      <trkpt lat="43.78591" lon="5.13128">
        <ele>403</ele>
        <time>2016-02-21T15:39:01.865Z</time>
      </trkpt>
      <trkpt lat="43.7859" lon="5.13129">
        <ele>403</ele>
        <time>2016-02-21T15:39:02.799Z</time>
      </trkpt>
      <trkpt lat="43.78584" lon="5.13137">
        <ele>405</ele>
        <time>2016-02-21T15:39:17.865Z</time>
      </trkpt>
      <trkpt lat="43.78584" lon="5.13137">
        <ele>405</ele>
        <time>2016-02-21T15:39:18.807Z</time>
      </trkpt>
      <trkpt lat="43.78583" lon="5.13137">
        <ele>405</ele>
        <time>2016-02-21T15:39:18.921Z</time>
      </trkpt>
      <trkpt lat="43.78583" lon="5.13138">
        <ele>405</ele>
        <time>2016-02-21T15:39:19.808Z</time>
      </trkpt>
      <trkpt lat="43.78584" lon="5.13142">
        <ele>405</ele>
        <time>2016-02-21T15:39:24.918Z</time>
      </trkpt>
      <trkpt lat="43.78585" lon="5.13143">
        <ele>405</ele>
        <time>2016-02-21T15:39:25.810Z</time>
      </trkpt>
      <trkpt lat="43.78586" lon="5.13145">
        <ele>405</ele>
        <time>2016-02-21T15:39:39.317Z</time>
      </trkpt>
      <trkpt lat="43.78576" lon="5.13154">
        <ele>410</ele>
        <time>2016-02-21T15:42:21.141Z</time>
      </trkpt>
      <trkpt lat="43.78567" lon="5.13151">
        <ele>407</ele>
        <time>2016-02-21T15:42:33.839Z</time>
      </trkpt>
      <trkpt lat="43.78566" lon="5.13152">
        <ele>407</ele>
        <time>2016-02-21T15:42:34.814Z</time>
      </trkpt>
      <trkpt lat="43.78558" lon="5.13159">
        <ele>405</ele>
        <time>2016-02-21T15:42:40.843Z</time>
      </trkpt>
      <trkpt lat="43.78557" lon="5.1316">
        <ele>405</ele>
        <time>2016-02-21T15:42:41.859Z</time>
      </trkpt>
      <trkpt lat="43.7855" lon="5.13166">
        <ele>406</ele>
        <time>2016-02-21T15:42:48.856Z</time>
      </trkpt>
      <trkpt lat="43.78548" lon="5.13166">
        <ele>406</ele>
        <time>2016-02-21T15:42:49.839Z</time>
      </trkpt>
      <trkpt lat="43.78543" lon="5.13174">
        <ele>407</ele>
        <time>2016-02-21T15:42:56.975Z</time>
      </trkpt>
      <trkpt lat="43.78541" lon="5.13175">
        <ele>408</ele>
        <time>2016-02-21T15:42:57.877Z</time>
      </trkpt>
      <trkpt lat="43.78538" lon="5.13185">
        <ele>408</ele>
        <time>2016-02-21T15:43:03.867Z</time>
      </trkpt>
      <trkpt lat="43.78538" lon="5.13186">
        <ele>409</ele>
        <time>2016-02-21T15:43:04.837Z</time>
      </trkpt>
      <trkpt lat="43.78531" lon="5.13194">
        <ele>409</ele>
        <time>2016-02-21T15:43:11.869Z</time>
      </trkpt>
      <trkpt lat="43.78531" lon="5.13195">
        <ele>409</ele>
        <time>2016-02-21T15:43:12.808Z</time>
      </trkpt>
      <trkpt lat="43.78527" lon="5.13202">
        <ele>410</ele>
        <time>2016-02-21T15:43:17.907Z</time>
      </trkpt>
      <trkpt lat="43.78524" lon="5.13205">
        <ele>408</ele>
        <time>2016-02-21T15:43:18.804Z</time>
      </trkpt>
      <trkpt lat="43.78516" lon="5.1321">
        <ele>410</ele>
        <time>2016-02-21T15:43:26.926Z</time>
      </trkpt>
      <trkpt lat="43.78515" lon="5.13211">
        <ele>410</ele>
        <time>2016-02-21T15:43:27.840Z</time>
      </trkpt>
      <trkpt lat="43.78508" lon="5.13218">
        <ele>408</ele>
        <time>2016-02-21T15:43:38.932Z</time>
      </trkpt>
      <trkpt lat="43.78507" lon="5.13218">
        <ele>409</ele>
        <time>2016-02-21T15:43:39.810Z</time>
      </trkpt>
      <trkpt lat="43.785" lon="5.13222">
        <ele>406</ele>
        <time>2016-02-21T15:43:45.000Z</time>
      </trkpt>
      <trkpt lat="43.78498" lon="5.13223">
        <ele>404</ele>
        <time>2016-02-21T15:43:45.869Z</time>
      </trkpt>
      <trkpt lat="43.78491" lon="5.13228">
        <ele>407</ele>
        <time>2016-02-21T15:43:51.911Z</time>
      </trkpt>
      <trkpt lat="43.78489" lon="5.13229">
        <ele>407</ele>
        <time>2016-02-21T15:43:52.819Z</time>
      </trkpt>
      <trkpt lat="43.7848" lon="5.13229">
        <ele>408</ele>
        <time>2016-02-21T15:44:00.807Z</time>
      </trkpt>
      <trkpt lat="43.7848" lon="5.13229">
        <ele>408</ele>
        <time>2016-02-21T15:44:00.843Z</time>
      </trkpt>
      <trkpt lat="43.78472" lon="5.13228">
        <ele>406</ele>
        <time>2016-02-21T15:44:09.895Z</time>
      </trkpt>
      <trkpt lat="43.7847" lon="5.13227">
        <ele>405</ele>
        <time>2016-02-21T15:44:10.859Z</time>
      </trkpt>
      <trkpt lat="43.78464" lon="5.13226">
        <ele>406</ele>
        <time>2016-02-21T15:44:29.844Z</time>
      </trkpt>
      <trkpt lat="43.78464" lon="5.13225">
        <ele>405</ele>
        <time>2016-02-21T15:44:30.806Z</time>
      </trkpt>
      <trkpt lat="43.78463" lon="5.13224">
        <ele>404</ele>
        <time>2016-02-21T15:44:44.949Z</time>
      </trkpt>
      <trkpt lat="43.78463" lon="5.13224">
        <ele>405</ele>
        <time>2016-02-21T15:44:45.828Z</time>
      </trkpt>
      <trkpt lat="43.78463" lon="5.13224">
        <ele>405</ele>
        <time>2016-02-21T15:44:45.873Z</time>
      </trkpt>
      <trkpt lat="43.78463" lon="5.13224">
        <ele>405</ele>
        <time>2016-02-21T15:44:45.906Z</time>
      </trkpt>
      <trkpt lat="43.78462" lon="5.13226">
        <ele>405</ele>
        <time>2016-02-21T15:44:46.876Z</time>
      </trkpt>
      <trkpt lat="43.78454" lon="5.13229">
        <ele>406</ele>
        <time>2016-02-21T15:45:18.913Z</time>
      </trkpt>
      <trkpt lat="43.78453" lon="5.13228">
        <ele>407</ele>
        <time>2016-02-21T15:45:19.853Z</time>
      </trkpt>
      <trkpt lat="43.78444" lon="5.13225">
        <ele>406</ele>
        <time>2016-02-21T15:45:27.998Z</time>
      </trkpt>
      <trkpt lat="43.78442" lon="5.13225">
        <ele>405</ele>
        <time>2016-02-21T15:45:28.843Z</time>
      </trkpt>
      <trkpt lat="43.78433" lon="5.13227">
        <ele>404</ele>
        <time>2016-02-21T15:45:34.894Z</time>
      </trkpt>
      <trkpt lat="43.78432" lon="5.13226">
        <ele>404</ele>
        <time>2016-02-21T15:45:35.829Z</time>
      </trkpt>
      <trkpt lat="43.78423" lon="5.13223">
        <ele>402</ele>
        <time>2016-02-21T15:45:44.867Z</time>
      </trkpt>
      <trkpt lat="43.78422" lon="5.13222">
        <ele>402</ele>
        <time>2016-02-21T15:45:45.803Z</time>
      </trkpt>
      <trkpt lat="43.78415" lon="5.13222">
        <ele>400</ele>
        <time>2016-02-21T15:46:14.891Z</time>
      </trkpt>
      <trkpt lat="43.78413" lon="5.13221">
        <ele>399</ele>
        <time>2016-02-21T15:46:15.807Z</time>
      </trkpt>
      <trkpt lat="43.78406" lon="5.13225">
        <ele>400</ele>
        <time>2016-02-21T15:46:27.005Z</time>
      </trkpt>
      <trkpt lat="43.78403" lon="5.13227">
        <ele>397</ele>
        <time>2016-02-21T15:46:27.894Z</time>
      </trkpt>
      <trkpt lat="43.78397" lon="5.13233">
        <ele>400</ele>
        <time>2016-02-21T15:46:33.888Z</time>
      </trkpt>
      <trkpt lat="43.78394" lon="5.13233">
        <ele>398</ele>
        <time>2016-02-21T15:46:34.807Z</time>
      </trkpt>
      <trkpt lat="43.78385" lon="5.13237">
        <ele>398</ele>
        <time>2016-02-21T15:46:38.922Z</time>
      </trkpt>
      <trkpt lat="43.78384" lon="5.13237">
        <ele>397</ele>
        <time>2016-02-21T15:46:39.811Z</time>
      </trkpt>
      <trkpt lat="43.78376" lon="5.13239">
        <ele>393</ele>
        <time>2016-02-21T15:46:50.933Z</time>
      </trkpt>
      <trkpt lat="43.78375" lon="5.1324">
        <ele>392</ele>
        <time>2016-02-21T15:46:51.882Z</time>
      </trkpt>
      <trkpt lat="43.78367" lon="5.13245">
        <ele>393</ele>
        <time>2016-02-21T15:47:01.890Z</time>
      </trkpt>
      <trkpt lat="43.78366" lon="5.13248">
        <ele>393</ele>
        <time>2016-02-21T15:47:02.804Z</time>
      </trkpt>
      <trkpt lat="43.78359" lon="5.13246">
        <ele>393</ele>
        <time>2016-02-21T15:47:19.887Z</time>
      </trkpt>
      <trkpt lat="43.78357" lon="5.13247">
        <ele>392</ele>
        <time>2016-02-21T15:47:20.853Z</time>
      </trkpt>
      <trkpt lat="43.78349" lon="5.13248">
        <ele>394</ele>
        <time>2016-02-21T15:47:38.679Z</time>
      </trkpt>
    </trkseg>
  </trk>
</gpx>